<?xml version="1.0" encoding="UTF-8" standalone="no" ?>
<gpx xmlns="http://www.topografix.com/GPX/1/1" xmlns:xsi="http://www.w3.org/2001/XMLSchema-instance" xsi:schemaLocation="http://www.topografix.com/GPX/1/1 http://www.topografix.com/GPX/1/1/gpx.xsd" version="1.1" creator="VisuGPX - https://www.visugpx.com">
  <metadata>
    <name>124 Chassigny(G)</name>
    <desc><![CDATA[philman52]]></desc>
  </metadata>
  <trk>
    <name><![CDATA[124 Chassigny(G)]]></name>
    <extensions>
      <line xmlns="http://www.topografix.com/GPX/gpx_style/0/2">
        <color>0000FF</color>
        <width>4</width>
      </line>
    </extensions>
    <trkseg>
      <trkpt lat="47.71692" lon="5.37225">
        <ele>354.41</ele>
        <time>2021-06-01T07:04:01Z</time>
      </trkpt>
      <trkpt lat="47.71693" lon="5.37224">
        <ele>354.41</ele>
        <time>2021-06-01T07:04:02Z</time>
      </trkpt>
      <trkpt lat="47.71711" lon="5.37207">
        <ele>355.19</ele>
        <time>2021-06-01T07:04:20Z</time>
      </trkpt>
      <trkpt lat="47.71714" lon="5.37201">
        <ele>354.9</ele>
        <time>2021-06-01T07:04:27Z</time>
      </trkpt>
      <trkpt lat="47.71715" lon="5.372">
        <ele>354.84</ele>
        <time>2021-06-01T07:04:28Z</time>
      </trkpt>
      <trkpt lat="47.71716" lon="5.37199">
        <ele>354.83</ele>
        <time>2021-06-01T07:04:29Z</time>
      </trkpt>
      <trkpt lat="47.71718" lon="5.37198">
        <ele>354.88</ele>
        <time>2021-06-01T07:04:30Z</time>
      </trkpt>
      <trkpt lat="47.71719" lon="5.37197">
        <ele>354.88</ele>
        <time>2021-06-01T07:04:31Z</time>
      </trkpt>
      <trkpt lat="47.7172" lon="5.37195">
        <ele>354.78</ele>
        <time>2021-06-01T07:04:32Z</time>
      </trkpt>
      <trkpt lat="47.71721" lon="5.37194">
        <ele>354.67</ele>
        <time>2021-06-01T07:04:33Z</time>
      </trkpt>
      <trkpt lat="47.71739" lon="5.37174">
        <ele>356.51</ele>
        <time>2021-06-01T07:04:52Z</time>
      </trkpt>
      <trkpt lat="47.71741" lon="5.37173">
        <ele>356.41</ele>
        <time>2021-06-01T07:04:54Z</time>
      </trkpt>
      <trkpt lat="47.71742" lon="5.37172">
        <ele>356.39</ele>
        <time>2021-06-01T07:04:55Z</time>
      </trkpt>
      <trkpt lat="47.71743" lon="5.37171">
        <ele>356.39</ele>
        <time>2021-06-01T07:04:56Z</time>
      </trkpt>
      <trkpt lat="47.71744" lon="5.3717">
        <ele>356.39</ele>
        <time>2021-06-01T07:04:57Z</time>
      </trkpt>
      <trkpt lat="47.71745" lon="5.37169">
        <ele>356.4</ele>
        <time>2021-06-01T07:04:58Z</time>
      </trkpt>
      <trkpt lat="47.71746" lon="5.37168">
        <ele>356.4</ele>
        <time>2021-06-01T07:04:59Z</time>
      </trkpt>
      <trkpt lat="47.71748" lon="5.37167">
        <ele>356.4</ele>
        <time>2021-06-01T07:05:00Z</time>
      </trkpt>
      <trkpt lat="47.7177" lon="5.37145">
        <ele>357.28</ele>
        <time>2021-06-01T07:05:21Z</time>
      </trkpt>
      <trkpt lat="47.71772" lon="5.37142">
        <ele>357.43</ele>
        <time>2021-06-01T07:05:25Z</time>
      </trkpt>
      <trkpt lat="47.71773" lon="5.37142">
        <ele>357.46</ele>
        <time>2021-06-01T07:05:26Z</time>
      </trkpt>
      <trkpt lat="47.71793" lon="5.37123">
        <ele>358.08</ele>
        <time>2021-06-01T07:05:45Z</time>
      </trkpt>
      <trkpt lat="47.71812" lon="5.37106">
        <ele>359.12</ele>
        <time>2021-06-01T07:06:02Z</time>
      </trkpt>
      <trkpt lat="47.7183" lon="5.3708">
        <ele>360.26</ele>
        <time>2021-06-01T07:06:21Z</time>
      </trkpt>
      <trkpt lat="47.71848" lon="5.3704">
        <ele>361.96</ele>
        <time>2021-06-01T07:06:45Z</time>
      </trkpt>
      <trkpt lat="47.71855" lon="5.37017">
        <ele>363.03</ele>
        <time>2021-06-01T07:06:58Z</time>
      </trkpt>
      <trkpt lat="47.71856" lon="5.37015">
        <ele>363.05</ele>
        <time>2021-06-01T07:06:59Z</time>
      </trkpt>
      <trkpt lat="47.71856" lon="5.37013">
        <ele>363.11</ele>
        <time>2021-06-01T07:07:00Z</time>
      </trkpt>
      <trkpt lat="47.71864" lon="5.36986">
        <ele>364.55</ele>
        <time>2021-06-01T07:07:14Z</time>
      </trkpt>
      <trkpt lat="47.71869" lon="5.36945">
        <ele>365.24</ele>
        <time>2021-06-01T07:07:34Z</time>
      </trkpt>
      <trkpt lat="47.7187" lon="5.36916">
        <ele>365.24</ele>
        <time>2021-06-01T07:07:48Z</time>
      </trkpt>
      <trkpt lat="47.71871" lon="5.36915">
        <ele>365.16</ele>
        <time>2021-06-01T07:07:49Z</time>
      </trkpt>
      <trkpt lat="47.71869" lon="5.36863">
        <ele>363.99</ele>
        <time>2021-06-01T07:08:15Z</time>
      </trkpt>
      <trkpt lat="47.71864" lon="5.36827">
        <ele>363.29</ele>
        <time>2021-06-01T07:08:34Z</time>
      </trkpt>
      <trkpt lat="47.71863" lon="5.36801">
        <ele>363.05</ele>
        <time>2021-06-01T07:08:51Z</time>
      </trkpt>
      <trkpt lat="47.71862" lon="5.36789">
        <ele>362.94</ele>
        <time>2021-06-01T07:08:58Z</time>
      </trkpt>
      <trkpt lat="47.71862" lon="5.36787">
        <ele>362.97</ele>
        <time>2021-06-01T07:08:59Z</time>
      </trkpt>
      <trkpt lat="47.71864" lon="5.36756">
        <ele>362.41</ele>
        <time>2021-06-01T07:09:16Z</time>
      </trkpt>
      <trkpt lat="47.71868" lon="5.36724">
        <ele>362.46</ele>
        <time>2021-06-01T07:09:34Z</time>
      </trkpt>
      <trkpt lat="47.71874" lon="5.36687">
        <ele>362.03</ele>
        <time>2021-06-01T07:09:55Z</time>
      </trkpt>
      <trkpt lat="47.71877" lon="5.3665">
        <ele>360.8</ele>
        <time>2021-06-01T07:10:15Z</time>
      </trkpt>
      <trkpt lat="47.71869" lon="5.36604">
        <ele>360.79</ele>
        <time>2021-06-01T07:10:38Z</time>
      </trkpt>
      <trkpt lat="47.7186" lon="5.36528">
        <ele>360.29</ele>
        <time>2021-06-01T07:11:12Z</time>
      </trkpt>
      <trkpt lat="47.71856" lon="5.36464">
        <ele>360.07</ele>
        <time>2021-06-01T07:11:45Z</time>
      </trkpt>
      <trkpt lat="47.71844" lon="5.36391">
        <ele>360.25</ele>
        <time>2021-06-01T07:12:18Z</time>
      </trkpt>
      <trkpt lat="47.71832" lon="5.36355">
        <ele>361.36</ele>
        <time>2021-06-01T07:12:36Z</time>
      </trkpt>
      <trkpt lat="47.7183" lon="5.36353">
        <ele>361.44</ele>
        <time>2021-06-01T07:12:37Z</time>
      </trkpt>
      <trkpt lat="47.71829" lon="5.36351">
        <ele>361.5</ele>
        <time>2021-06-01T07:12:38Z</time>
      </trkpt>
      <trkpt lat="47.7181" lon="5.36306">
        <ele>362.23</ele>
        <time>2021-06-01T07:13:00Z</time>
      </trkpt>
      <trkpt lat="47.71791" lon="5.3628">
        <ele>363.45</ele>
        <time>2021-06-01T07:13:22Z</time>
      </trkpt>
      <trkpt lat="47.71772" lon="5.36253">
        <ele>365.39</ele>
        <time>2021-06-01T07:13:44Z</time>
      </trkpt>
      <trkpt lat="47.7177" lon="5.36245">
        <ele>365.91</ele>
        <time>2021-06-01T07:13:50Z</time>
      </trkpt>
      <trkpt lat="47.71747" lon="5.36201">
        <ele>368.09</ele>
        <time>2021-06-01T07:14:16Z</time>
      </trkpt>
      <trkpt lat="47.71726" lon="5.36181">
        <ele>370.15</ele>
        <time>2021-06-01T07:14:32Z</time>
      </trkpt>
      <trkpt lat="47.71713" lon="5.3616">
        <ele>372.12</ele>
        <time>2021-06-01T07:14:47Z</time>
      </trkpt>
      <trkpt lat="47.71702" lon="5.36131">
        <ele>372.55</ele>
        <time>2021-06-01T07:15:06Z</time>
      </trkpt>
      <trkpt lat="47.71698" lon="5.36121">
        <ele>372.86</ele>
        <time>2021-06-01T07:15:11Z</time>
      </trkpt>
      <trkpt lat="47.71691" lon="5.36099">
        <ele>373.19</ele>
        <time>2021-06-01T07:15:21Z</time>
      </trkpt>
      <trkpt lat="47.71689" lon="5.36088">
        <ele>372.94</ele>
        <time>2021-06-01T07:15:27Z</time>
      </trkpt>
      <trkpt lat="47.71704" lon="5.36075">
        <ele>372.09</ele>
        <time>2021-06-01T07:15:53Z</time>
      </trkpt>
      <trkpt lat="47.7173" lon="5.36062">
        <ele>371.34</ele>
        <time>2021-06-01T07:16:16Z</time>
      </trkpt>
      <trkpt lat="47.71734" lon="5.36061">
        <ele>370.31</ele>
        <time>2021-06-01T07:16:23Z</time>
      </trkpt>
      <trkpt lat="47.71758" lon="5.36054">
        <ele>368.91</ele>
        <time>2021-06-01T07:16:48Z</time>
      </trkpt>
      <trkpt lat="47.71769" lon="5.36048">
        <ele>369.67</ele>
        <time>2021-06-01T07:16:59Z</time>
      </trkpt>
      <trkpt lat="47.71803" lon="5.36034">
        <ele>367.65</ele>
        <time>2021-06-01T07:17:34Z</time>
      </trkpt>
      <trkpt lat="47.71839" lon="5.36007">
        <ele>365.9</ele>
        <time>2021-06-01T07:18:04Z</time>
      </trkpt>
      <trkpt lat="47.71837" lon="5.3598">
        <ele>365.49</ele>
        <time>2021-06-01T07:18:19Z</time>
      </trkpt>
      <trkpt lat="47.71832" lon="5.35961">
        <ele>365.38</ele>
        <time>2021-06-01T07:18:27Z</time>
      </trkpt>
      <trkpt lat="47.71829" lon="5.35918">
        <ele>365.37</ele>
        <time>2021-06-01T07:18:49Z</time>
      </trkpt>
      <trkpt lat="47.71825" lon="5.35889">
        <ele>366.3</ele>
        <time>2021-06-01T07:19:13Z</time>
      </trkpt>
      <trkpt lat="47.7183" lon="5.35886">
        <ele>363.88</ele>
        <time>2021-06-01T07:25:38Z</time>
      </trkpt>
      <trkpt lat="47.71834" lon="5.35875">
        <ele>363.15</ele>
        <time>2021-06-01T07:25:59Z</time>
      </trkpt>
      <trkpt lat="47.71842" lon="5.35888">
        <ele>364.19</ele>
        <time>2021-06-01T07:26:23Z</time>
      </trkpt>
      <trkpt lat="47.71852" lon="5.35882">
        <ele>364.19</ele>
        <time>2021-06-01T07:26:43Z</time>
      </trkpt>
      <trkpt lat="47.71854" lon="5.35873">
        <ele>364.19</ele>
        <time>2021-06-01T07:26:57Z</time>
      </trkpt>
      <trkpt lat="47.71861" lon="5.35872">
        <ele>355.99</ele>
        <time>2021-06-01T07:27:17Z</time>
      </trkpt>
      <trkpt lat="47.71862" lon="5.35872">
        <ele>355.96</ele>
        <time>2021-06-01T07:27:18Z</time>
      </trkpt>
      <trkpt lat="47.71866" lon="5.35869">
        <ele>352.61</ele>
        <time>2021-06-01T07:27:36Z</time>
      </trkpt>
      <trkpt lat="47.7187" lon="5.35862">
        <ele>349.59</ele>
        <time>2021-06-01T07:27:54Z</time>
      </trkpt>
      <trkpt lat="47.71877" lon="5.35863">
        <ele>349.05</ele>
        <time>2021-06-01T07:28:11Z</time>
      </trkpt>
      <trkpt lat="47.71881" lon="5.3586">
        <ele>348.11</ele>
        <time>2021-06-01T07:28:29Z</time>
      </trkpt>
      <trkpt lat="47.71885" lon="5.35859">
        <ele>347.24</ele>
        <time>2021-06-01T07:28:33Z</time>
      </trkpt>
      <trkpt lat="47.71895" lon="5.35855">
        <ele>344.02</ele>
        <time>2021-06-01T07:28:52Z</time>
      </trkpt>
      <trkpt lat="47.71899" lon="5.35854">
        <ele>343.01</ele>
        <time>2021-06-01T07:28:58Z</time>
      </trkpt>
      <trkpt lat="47.71903" lon="5.35854">
        <ele>342.39</ele>
        <time>2021-06-01T07:29:05Z</time>
      </trkpt>
      <trkpt lat="47.7191" lon="5.35855">
        <ele>342.28</ele>
        <time>2021-06-01T07:29:10Z</time>
      </trkpt>
      <trkpt lat="47.71915" lon="5.35849">
        <ele>340.71</ele>
        <time>2021-06-01T07:30:06Z</time>
      </trkpt>
      <trkpt lat="47.71921" lon="5.35848">
        <ele>338.11</ele>
        <time>2021-06-01T07:30:31Z</time>
      </trkpt>
      <trkpt lat="47.71921" lon="5.35847">
        <ele>337.23</ele>
        <time>2021-06-01T07:30:52Z</time>
      </trkpt>
      <trkpt lat="47.71926" lon="5.35842">
        <ele>336.27</ele>
        <time>2021-06-01T07:31:14Z</time>
      </trkpt>
      <trkpt lat="47.71931" lon="5.35836">
        <ele>333.18</ele>
        <time>2021-06-01T07:31:34Z</time>
      </trkpt>
      <trkpt lat="47.71939" lon="5.35838">
        <ele>330.17</ele>
        <time>2021-06-01T07:31:49Z</time>
      </trkpt>
      <trkpt lat="47.71944" lon="5.35838">
        <ele>328.83</ele>
        <time>2021-06-01T07:31:55Z</time>
      </trkpt>
      <trkpt lat="47.71956" lon="5.35843">
        <ele>325.25</ele>
        <time>2021-06-01T07:32:08Z</time>
      </trkpt>
      <trkpt lat="47.71978" lon="5.35839">
        <ele>324.14</ele>
        <time>2021-06-01T07:32:25Z</time>
      </trkpt>
      <trkpt lat="47.71993" lon="5.35823">
        <ele>321.14</ele>
        <time>2021-06-01T07:32:46Z</time>
      </trkpt>
      <trkpt lat="47.72013" lon="5.35825">
        <ele>319.34</ele>
        <time>2021-06-01T07:33:06Z</time>
      </trkpt>
      <trkpt lat="47.72032" lon="5.35818">
        <ele>316.18</ele>
        <time>2021-06-01T07:33:26Z</time>
      </trkpt>
      <trkpt lat="47.72048" lon="5.35813">
        <ele>314.16</ele>
        <time>2021-06-01T07:33:37Z</time>
      </trkpt>
      <trkpt lat="47.72067" lon="5.35799">
        <ele>311.02</ele>
        <time>2021-06-01T07:33:51Z</time>
      </trkpt>
      <trkpt lat="47.72079" lon="5.35788">
        <ele>307.87</ele>
        <time>2021-06-01T07:34:05Z</time>
      </trkpt>
      <trkpt lat="47.72093" lon="5.35778">
        <ele>305.18</ele>
        <time>2021-06-01T07:34:22Z</time>
      </trkpt>
      <trkpt lat="47.72092" lon="5.35771">
        <ele>305.06</ele>
        <time>2021-06-01T07:34:30Z</time>
      </trkpt>
      <trkpt lat="47.72091" lon="5.35769">
        <ele>305.06</ele>
        <time>2021-06-01T07:34:31Z</time>
      </trkpt>
      <trkpt lat="47.7209" lon="5.35765">
        <ele>304.92</ele>
        <time>2021-06-01T07:34:34Z</time>
      </trkpt>
      <trkpt lat="47.7209" lon="5.35759">
        <ele>304.37</ele>
        <time>2021-06-01T07:34:48Z</time>
      </trkpt>
      <trkpt lat="47.72087" lon="5.35737">
        <ele>304.15</ele>
        <time>2021-06-01T07:35:07Z</time>
      </trkpt>
      <trkpt lat="47.72086" lon="5.35713">
        <ele>303.24</ele>
        <time>2021-06-01T07:35:22Z</time>
      </trkpt>
      <trkpt lat="47.72091" lon="5.35691">
        <ele>302.18</ele>
        <time>2021-06-01T07:35:37Z</time>
      </trkpt>
      <trkpt lat="47.72092" lon="5.35668">
        <ele>301.05</ele>
        <time>2021-06-01T07:35:53Z</time>
      </trkpt>
      <trkpt lat="47.72101" lon="5.35645">
        <ele>300.23</ele>
        <time>2021-06-01T07:36:05Z</time>
      </trkpt>
      <trkpt lat="47.72102" lon="5.35643">
        <ele>300.18</ele>
        <time>2021-06-01T07:36:06Z</time>
      </trkpt>
      <trkpt lat="47.72114" lon="5.35623">
        <ele>299.33</ele>
        <time>2021-06-01T07:36:19Z</time>
      </trkpt>
      <trkpt lat="47.72133" lon="5.35606">
        <ele>298.61</ele>
        <time>2021-06-01T07:36:39Z</time>
      </trkpt>
      <trkpt lat="47.72134" lon="5.35605">
        <ele>298.65</ele>
        <time>2021-06-01T07:36:40Z</time>
      </trkpt>
      <trkpt lat="47.72135" lon="5.35604">
        <ele>298.68</ele>
        <time>2021-06-01T07:36:41Z</time>
      </trkpt>
      <trkpt lat="47.72143" lon="5.35595">
        <ele>298.79</ele>
        <time>2021-06-01T07:36:48Z</time>
      </trkpt>
      <trkpt lat="47.72146" lon="5.35593">
        <ele>298.77</ele>
        <time>2021-06-01T07:36:51Z</time>
      </trkpt>
      <trkpt lat="47.72147" lon="5.35592">
        <ele>298.73</ele>
        <time>2021-06-01T07:36:52Z</time>
      </trkpt>
      <trkpt lat="47.7216" lon="5.35582">
        <ele>298.02</ele>
        <time>2021-06-01T07:37:07Z</time>
      </trkpt>
      <trkpt lat="47.72182" lon="5.35572">
        <ele>298.18</ele>
        <time>2021-06-01T07:37:25Z</time>
      </trkpt>
      <trkpt lat="47.72205" lon="5.35559">
        <ele>298.7</ele>
        <time>2021-06-01T07:37:45Z</time>
      </trkpt>
      <trkpt lat="47.72226" lon="5.35549">
        <ele>298.37</ele>
        <time>2021-06-01T07:38:01Z</time>
      </trkpt>
      <trkpt lat="47.72227" lon="5.35548">
        <ele>298.36</ele>
        <time>2021-06-01T07:38:02Z</time>
      </trkpt>
      <trkpt lat="47.72248" lon="5.35529">
        <ele>297.75</ele>
        <time>2021-06-01T07:38:17Z</time>
      </trkpt>
      <trkpt lat="47.72264" lon="5.3549">
        <ele>296.74</ele>
        <time>2021-06-01T07:38:37Z</time>
      </trkpt>
      <trkpt lat="47.72274" lon="5.35455">
        <ele>297.11</ele>
        <time>2021-06-01T07:38:55Z</time>
      </trkpt>
      <trkpt lat="47.72282" lon="5.35428">
        <ele>296.81</ele>
        <time>2021-06-01T07:39:13Z</time>
      </trkpt>
      <trkpt lat="47.72284" lon="5.3541">
        <ele>296.28</ele>
        <time>2021-06-01T07:39:31Z</time>
      </trkpt>
      <trkpt lat="47.72285" lon="5.3539">
        <ele>297.87</ele>
        <time>2021-06-01T07:39:48Z</time>
      </trkpt>
      <trkpt lat="47.72289" lon="5.3535">
        <ele>300.94</ele>
        <time>2021-06-01T07:40:12Z</time>
      </trkpt>
      <trkpt lat="47.723" lon="5.35324">
        <ele>303.07</ele>
        <time>2021-06-01T07:40:30Z</time>
      </trkpt>
      <trkpt lat="47.72311" lon="5.35302">
        <ele>306.36</ele>
        <time>2021-06-01T07:40:46Z</time>
      </trkpt>
      <trkpt lat="47.72312" lon="5.35282">
        <ele>309.16</ele>
        <time>2021-06-01T07:41:04Z</time>
      </trkpt>
      <trkpt lat="47.72294" lon="5.35259">
        <ele>311.04</ele>
        <time>2021-06-01T07:41:28Z</time>
      </trkpt>
      <trkpt lat="47.7227" lon="5.35232">
        <ele>314.05</ele>
        <time>2021-06-01T07:41:50Z</time>
      </trkpt>
      <trkpt lat="47.72241" lon="5.35206">
        <ele>316.66</ele>
        <time>2021-06-01T07:42:16Z</time>
      </trkpt>
      <trkpt lat="47.7221" lon="5.35183">
        <ele>317.31</ele>
        <time>2021-06-01T07:42:40Z</time>
      </trkpt>
      <trkpt lat="47.72178" lon="5.35167">
        <ele>316.32</ele>
        <time>2021-06-01T07:43:04Z</time>
      </trkpt>
      <trkpt lat="47.72145" lon="5.35147">
        <ele>316.19</ele>
        <time>2021-06-01T07:43:29Z</time>
      </trkpt>
      <trkpt lat="47.72114" lon="5.35133">
        <ele>314.71</ele>
        <time>2021-06-01T07:43:51Z</time>
      </trkpt>
      <trkpt lat="47.72077" lon="5.35121">
        <ele>312.29</ele>
        <time>2021-06-01T07:44:17Z</time>
      </trkpt>
      <trkpt lat="47.72049" lon="5.35122">
        <ele>309.26</ele>
        <time>2021-06-01T07:44:38Z</time>
      </trkpt>
      <trkpt lat="47.72017" lon="5.35123">
        <ele>307.39</ele>
        <time>2021-06-01T07:45:04Z</time>
      </trkpt>
      <trkpt lat="47.71982" lon="5.35103">
        <ele>306.22</ele>
        <time>2021-06-01T07:45:28Z</time>
      </trkpt>
      <trkpt lat="47.71958" lon="5.35063">
        <ele>308.06</ele>
        <time>2021-06-01T07:45:53Z</time>
      </trkpt>
      <trkpt lat="47.71934" lon="5.3506">
        <ele>307.07</ele>
        <time>2021-06-01T07:46:14Z</time>
      </trkpt>
      <trkpt lat="47.71921" lon="5.35053">
        <ele>306.73</ele>
        <time>2021-06-01T07:46:23Z</time>
      </trkpt>
      <trkpt lat="47.71909" lon="5.35052">
        <ele>306.31</ele>
        <time>2021-06-01T07:46:39Z</time>
      </trkpt>
      <trkpt lat="47.71902" lon="5.35059">
        <ele>305.96</ele>
        <time>2021-06-01T07:47:01Z</time>
      </trkpt>
      <trkpt lat="47.71905" lon="5.3506">
        <ele>305.56</ele>
        <time>2021-06-01T07:47:32Z</time>
      </trkpt>
      <trkpt lat="47.71908" lon="5.35067">
        <ele>304.95</ele>
        <time>2021-06-01T07:48:04Z</time>
      </trkpt>
      <trkpt lat="47.71908" lon="5.35067">
        <ele>304.95</ele>
        <time>2021-06-01T07:48:05Z</time>
      </trkpt>
      <trkpt lat="47.71878" lon="5.35066">
        <ele>302.55</ele>
        <time>2021-06-01T07:48:31Z</time>
      </trkpt>
      <trkpt lat="47.71866" lon="5.35062">
        <ele>302.42</ele>
        <time>2021-06-01T07:48:40Z</time>
      </trkpt>
      <trkpt lat="47.71832" lon="5.3504">
        <ele>303.34</ele>
        <time>2021-06-01T07:49:05Z</time>
      </trkpt>
      <trkpt lat="47.71801" lon="5.35011">
        <ele>305</ele>
        <time>2021-06-01T07:49:30Z</time>
      </trkpt>
      <trkpt lat="47.71787" lon="5.34983">
        <ele>307.01</ele>
        <time>2021-06-01T07:49:47Z</time>
      </trkpt>
      <trkpt lat="47.7179" lon="5.34954">
        <ele>310.02</ele>
        <time>2021-06-01T07:50:01Z</time>
      </trkpt>
      <trkpt lat="47.718" lon="5.34933">
        <ele>313.29</ele>
        <time>2021-06-01T07:50:17Z</time>
      </trkpt>
      <trkpt lat="47.71812" lon="5.34903">
        <ele>315.59</ele>
        <time>2021-06-01T07:51:42Z</time>
      </trkpt>
      <trkpt lat="47.71811" lon="5.34887">
        <ele>316.74</ele>
        <time>2021-06-01T07:51:59Z</time>
      </trkpt>
      <trkpt lat="47.71798" lon="5.34876">
        <ele>316.47</ele>
        <time>2021-06-01T07:52:12Z</time>
      </trkpt>
      <trkpt lat="47.71765" lon="5.34854">
        <ele>315.23</ele>
        <time>2021-06-01T07:52:32Z</time>
      </trkpt>
      <trkpt lat="47.71742" lon="5.34842">
        <ele>314.28</ele>
        <time>2021-06-01T07:52:49Z</time>
      </trkpt>
      <trkpt lat="47.71727" lon="5.34833">
        <ele>313.39</ele>
        <time>2021-06-01T07:53:00Z</time>
      </trkpt>
      <trkpt lat="47.71708" lon="5.34819">
        <ele>313.67</ele>
        <time>2021-06-01T07:53:15Z</time>
      </trkpt>
      <trkpt lat="47.71686" lon="5.3481">
        <ele>315.33</ele>
        <time>2021-06-01T07:53:30Z</time>
      </trkpt>
      <trkpt lat="47.71669" lon="5.34801">
        <ele>318.39</ele>
        <time>2021-06-01T07:53:44Z</time>
      </trkpt>
      <trkpt lat="47.7165" lon="5.34787">
        <ele>320.06</ele>
        <time>2021-06-01T07:53:59Z</time>
      </trkpt>
      <trkpt lat="47.7163" lon="5.34773">
        <ele>321.35</ele>
        <time>2021-06-01T07:54:17Z</time>
      </trkpt>
      <trkpt lat="47.71592" lon="5.34757">
        <ele>322.65</ele>
        <time>2021-06-01T07:54:42Z</time>
      </trkpt>
      <trkpt lat="47.71564" lon="5.34744">
        <ele>322.95</ele>
        <time>2021-06-01T07:55:05Z</time>
      </trkpt>
      <trkpt lat="47.71533" lon="5.34726">
        <ele>323.41</ele>
        <time>2021-06-01T07:55:30Z</time>
      </trkpt>
      <trkpt lat="47.71499" lon="5.34706">
        <ele>322.72</ele>
        <time>2021-06-01T07:55:54Z</time>
      </trkpt>
      <trkpt lat="47.71469" lon="5.34682">
        <ele>321.38</ele>
        <time>2021-06-01T07:56:19Z</time>
      </trkpt>
      <trkpt lat="47.7147" lon="5.34676">
        <ele>321.47</ele>
        <time>2021-06-01T07:56:23Z</time>
      </trkpt>
      <trkpt lat="47.71469" lon="5.34664">
        <ele>321.93</ele>
        <time>2021-06-01T07:56:27Z</time>
      </trkpt>
      <trkpt lat="47.71475" lon="5.34638">
        <ele>322.54</ele>
        <time>2021-06-01T07:56:42Z</time>
      </trkpt>
      <trkpt lat="47.71485" lon="5.34603">
        <ele>323.26</ele>
        <time>2021-06-01T07:56:59Z</time>
      </trkpt>
      <trkpt lat="47.71496" lon="5.34565">
        <ele>324.12</ele>
        <time>2021-06-01T07:57:15Z</time>
      </trkpt>
      <trkpt lat="47.71501" lon="5.34553">
        <ele>324.06</ele>
        <time>2021-06-01T07:57:22Z</time>
      </trkpt>
      <trkpt lat="47.71514" lon="5.34523">
        <ele>323.93</ele>
        <time>2021-06-01T07:57:38Z</time>
      </trkpt>
      <trkpt lat="47.71525" lon="5.34498">
        <ele>323.76</ele>
        <time>2021-06-01T07:57:57Z</time>
      </trkpt>
      <trkpt lat="47.71547" lon="5.34455">
        <ele>323.66</ele>
        <time>2021-06-01T07:58:23Z</time>
      </trkpt>
      <trkpt lat="47.71565" lon="5.34414">
        <ele>323.39</ele>
        <time>2021-06-01T07:58:42Z</time>
      </trkpt>
      <trkpt lat="47.71574" lon="5.34401">
        <ele>323.42</ele>
        <time>2021-06-01T07:58:49Z</time>
      </trkpt>
      <trkpt lat="47.7159" lon="5.34373">
        <ele>323.04</ele>
        <time>2021-06-01T07:59:08Z</time>
      </trkpt>
      <trkpt lat="47.71592" lon="5.34346">
        <ele>322.92</ele>
        <time>2021-06-01T07:59:21Z</time>
      </trkpt>
      <trkpt lat="47.71595" lon="5.34291">
        <ele>323.34</ele>
        <time>2021-06-01T07:59:46Z</time>
      </trkpt>
      <trkpt lat="47.716" lon="5.3425">
        <ele>324.09</ele>
        <time>2021-06-01T08:00:04Z</time>
      </trkpt>
      <trkpt lat="47.71607" lon="5.34205">
        <ele>325.6</ele>
        <time>2021-06-01T08:00:25Z</time>
      </trkpt>
      <trkpt lat="47.7162" lon="5.34156">
        <ele>327.17</ele>
        <time>2021-06-01T08:00:51Z</time>
      </trkpt>
      <trkpt lat="47.71632" lon="5.34111">
        <ele>327.76</ele>
        <time>2021-06-01T08:01:12Z</time>
      </trkpt>
      <trkpt lat="47.71633" lon="5.34105">
        <ele>327.74</ele>
        <time>2021-06-01T08:01:14Z</time>
      </trkpt>
      <trkpt lat="47.71634" lon="5.34099">
        <ele>327.71</ele>
        <time>2021-06-01T08:01:16Z</time>
      </trkpt>
      <trkpt lat="47.71647" lon="5.3406">
        <ele>327.92</ele>
        <time>2021-06-01T08:01:34Z</time>
      </trkpt>
      <trkpt lat="47.71649" lon="5.3405">
        <ele>328.01</ele>
        <time>2021-06-01T08:01:39Z</time>
      </trkpt>
      <trkpt lat="47.71649" lon="5.34047">
        <ele>328.01</ele>
        <time>2021-06-01T08:01:40Z</time>
      </trkpt>
      <trkpt lat="47.71664" lon="5.34013">
        <ele>327.37</ele>
        <time>2021-06-01T08:01:56Z</time>
      </trkpt>
      <trkpt lat="47.71676" lon="5.33973">
        <ele>327.13</ele>
        <time>2021-06-01T08:02:15Z</time>
      </trkpt>
      <trkpt lat="47.71675" lon="5.33955">
        <ele>327.16</ele>
        <time>2021-06-01T08:02:24Z</time>
      </trkpt>
      <trkpt lat="47.71675" lon="5.33953">
        <ele>327.1</ele>
        <time>2021-06-01T08:02:25Z</time>
      </trkpt>
      <trkpt lat="47.71674" lon="5.33951">
        <ele>327.01</ele>
        <time>2021-06-01T08:02:26Z</time>
      </trkpt>
      <trkpt lat="47.71674" lon="5.3395">
        <ele>326.93</ele>
        <time>2021-06-01T08:02:27Z</time>
      </trkpt>
      <trkpt lat="47.71673" lon="5.33948">
        <ele>326.88</ele>
        <time>2021-06-01T08:02:28Z</time>
      </trkpt>
      <trkpt lat="47.71672" lon="5.33946">
        <ele>326.85</ele>
        <time>2021-06-01T08:02:29Z</time>
      </trkpt>
      <trkpt lat="47.71671" lon="5.33944">
        <ele>326.84</ele>
        <time>2021-06-01T08:02:30Z</time>
      </trkpt>
      <trkpt lat="47.71652" lon="5.33933">
        <ele>326.57</ele>
        <time>2021-06-01T08:02:48Z</time>
      </trkpt>
      <trkpt lat="47.71627" lon="5.33932">
        <ele>326.46</ele>
        <time>2021-06-01T08:03:06Z</time>
      </trkpt>
      <trkpt lat="47.71602" lon="5.3393">
        <ele>326.48</ele>
        <time>2021-06-01T08:03:23Z</time>
      </trkpt>
      <trkpt lat="47.71577" lon="5.33901">
        <ele>326.51</ele>
        <time>2021-06-01T08:03:43Z</time>
      </trkpt>
      <trkpt lat="47.71559" lon="5.33871">
        <ele>326.02</ele>
        <time>2021-06-01T08:03:59Z</time>
      </trkpt>
      <trkpt lat="47.71556" lon="5.33865">
        <ele>325.88</ele>
        <time>2021-06-01T08:04:03Z</time>
      </trkpt>
      <trkpt lat="47.71552" lon="5.33844">
        <ele>325.19</ele>
        <time>2021-06-01T08:04:19Z</time>
      </trkpt>
      <trkpt lat="47.71552" lon="5.33844">
        <ele>325.24</ele>
        <time>2021-06-01T08:04:44Z</time>
      </trkpt>
      <trkpt lat="47.71552" lon="5.33844">
        <ele>324.86</ele>
        <time>2021-06-01T08:04:49Z</time>
      </trkpt>
      <trkpt lat="47.71549" lon="5.33838">
        <ele>324.89</ele>
        <time>2021-06-01T08:09:37Z</time>
      </trkpt>
      <trkpt lat="47.71547" lon="5.33841">
        <ele>324.89</ele>
        <time>2021-06-01T08:09:39Z</time>
      </trkpt>
      <trkpt lat="47.71546" lon="5.33842">
        <ele>324.89</ele>
        <time>2021-06-01T08:09:40Z</time>
      </trkpt>
      <trkpt lat="47.71545" lon="5.33843">
        <ele>324.91</ele>
        <time>2021-06-01T08:09:41Z</time>
      </trkpt>
      <trkpt lat="47.71545" lon="5.33845">
        <ele>324.95</ele>
        <time>2021-06-01T08:09:42Z</time>
      </trkpt>
      <trkpt lat="47.71544" lon="5.33847">
        <ele>325.03</ele>
        <time>2021-06-01T08:09:43Z</time>
      </trkpt>
      <trkpt lat="47.71528" lon="5.33883">
        <ele>325.25</ele>
        <time>2021-06-01T08:10:04Z</time>
      </trkpt>
      <trkpt lat="47.71504" lon="5.33924">
        <ele>325.73</ele>
        <time>2021-06-01T08:10:25Z</time>
      </trkpt>
      <trkpt lat="47.71485" lon="5.33954">
        <ele>326.52</ele>
        <time>2021-06-01T08:10:44Z</time>
      </trkpt>
      <trkpt lat="47.71465" lon="5.33965">
        <ele>326.77</ele>
        <time>2021-06-01T08:10:59Z</time>
      </trkpt>
      <trkpt lat="47.71437" lon="5.33958">
        <ele>327.41</ele>
        <time>2021-06-01T08:11:18Z</time>
      </trkpt>
      <trkpt lat="47.71414" lon="5.33932">
        <ele>329.1</ele>
        <time>2021-06-01T08:11:37Z</time>
      </trkpt>
      <trkpt lat="47.71385" lon="5.33913">
        <ele>331.27</ele>
        <time>2021-06-01T08:11:59Z</time>
      </trkpt>
      <trkpt lat="47.71354" lon="5.33891">
        <ele>333.74</ele>
        <time>2021-06-01T08:12:23Z</time>
      </trkpt>
      <trkpt lat="47.71324" lon="5.33873">
        <ele>335.55</ele>
        <time>2021-06-01T08:12:45Z</time>
      </trkpt>
      <trkpt lat="47.71292" lon="5.33884">
        <ele>336.84</ele>
        <time>2021-06-01T08:13:05Z</time>
      </trkpt>
      <trkpt lat="47.71266" lon="5.33915">
        <ele>336.46</ele>
        <time>2021-06-01T08:13:25Z</time>
      </trkpt>
      <trkpt lat="47.71234" lon="5.33953">
        <ele>336.5</ele>
        <time>2021-06-01T08:13:50Z</time>
      </trkpt>
      <trkpt lat="47.71231" lon="5.33956">
        <ele>336.61</ele>
        <time>2021-06-01T08:13:52Z</time>
      </trkpt>
      <trkpt lat="47.71207" lon="5.33978">
        <ele>336.94</ele>
        <time>2021-06-01T08:14:10Z</time>
      </trkpt>
      <trkpt lat="47.71185" lon="5.33997">
        <ele>337.64</ele>
        <time>2021-06-01T08:14:28Z</time>
      </trkpt>
      <trkpt lat="47.71162" lon="5.34018">
        <ele>339.44</ele>
        <time>2021-06-01T08:14:48Z</time>
      </trkpt>
      <trkpt lat="47.71139" lon="5.34043">
        <ele>341.96</ele>
        <time>2021-06-01T08:15:08Z</time>
      </trkpt>
      <trkpt lat="47.71108" lon="5.3407">
        <ele>343.16</ele>
        <time>2021-06-01T08:15:30Z</time>
      </trkpt>
      <trkpt lat="47.71083" lon="5.34063">
        <ele>343.26</ele>
        <time>2021-06-01T08:15:48Z</time>
      </trkpt>
      <trkpt lat="47.71053" lon="5.34038">
        <ele>343.31</ele>
        <time>2021-06-01T08:16:10Z</time>
      </trkpt>
      <trkpt lat="47.71026" lon="5.34009">
        <ele>342.76</ele>
        <time>2021-06-01T08:16:31Z</time>
      </trkpt>
      <trkpt lat="47.70999" lon="5.33975">
        <ele>342.04</ele>
        <time>2021-06-01T08:16:54Z</time>
      </trkpt>
      <trkpt lat="47.70978" lon="5.33939">
        <ele>341.88</ele>
        <time>2021-06-01T08:17:14Z</time>
      </trkpt>
      <trkpt lat="47.70954" lon="5.33883">
        <ele>340.85</ele>
        <time>2021-06-01T08:17:43Z</time>
      </trkpt>
      <trkpt lat="47.70931" lon="5.3383">
        <ele>339.77</ele>
        <time>2021-06-01T08:18:10Z</time>
      </trkpt>
      <trkpt lat="47.70902" lon="5.3377">
        <ele>338.6</ele>
        <time>2021-06-01T08:18:42Z</time>
      </trkpt>
      <trkpt lat="47.7088" lon="5.33729">
        <ele>338.23</ele>
        <time>2021-06-01T08:19:06Z</time>
      </trkpt>
      <trkpt lat="47.70858" lon="5.33686">
        <ele>337.95</ele>
        <time>2021-06-01T08:19:30Z</time>
      </trkpt>
      <trkpt lat="47.70856" lon="5.33637">
        <ele>337.01</ele>
        <time>2021-06-01T08:19:53Z</time>
      </trkpt>
      <trkpt lat="47.70853" lon="5.33579">
        <ele>336.08</ele>
        <time>2021-06-01T08:20:19Z</time>
      </trkpt>
      <trkpt lat="47.70837" lon="5.33531">
        <ele>335.69</ele>
        <time>2021-06-01T08:20:44Z</time>
      </trkpt>
      <trkpt lat="47.70825" lon="5.33487">
        <ele>335.2</ele>
        <time>2021-06-01T08:21:06Z</time>
      </trkpt>
      <trkpt lat="47.70818" lon="5.3343">
        <ele>334.76</ele>
        <time>2021-06-01T08:21:32Z</time>
      </trkpt>
      <trkpt lat="47.7082" lon="5.33383">
        <ele>333.73</ele>
        <time>2021-06-01T08:21:54Z</time>
      </trkpt>
      <trkpt lat="47.7082" lon="5.33331">
        <ele>332.68</ele>
        <time>2021-06-01T08:22:16Z</time>
      </trkpt>
      <trkpt lat="47.70822" lon="5.3328">
        <ele>330.07</ele>
        <time>2021-06-01T08:22:40Z</time>
      </trkpt>
      <trkpt lat="47.70834" lon="5.33234">
        <ele>329.56</ele>
        <time>2021-06-01T08:23:03Z</time>
      </trkpt>
      <trkpt lat="47.70833" lon="5.33191">
        <ele>330.75</ele>
        <time>2021-06-01T08:23:24Z</time>
      </trkpt>
      <trkpt lat="47.70824" lon="5.3316">
        <ele>331.93</ele>
        <time>2021-06-01T08:23:42Z</time>
      </trkpt>
      <trkpt lat="47.70819" lon="5.33143">
        <ele>332.56</ele>
        <time>2021-06-01T08:23:50Z</time>
      </trkpt>
      <trkpt lat="47.7081" lon="5.33114">
        <ele>333.72</ele>
        <time>2021-06-01T08:24:05Z</time>
      </trkpt>
      <trkpt lat="47.70797" lon="5.33067">
        <ele>335.52</ele>
        <time>2021-06-01T08:24:27Z</time>
      </trkpt>
      <trkpt lat="47.70784" lon="5.33021">
        <ele>335.95</ele>
        <time>2021-06-01T08:24:48Z</time>
      </trkpt>
      <trkpt lat="47.7078" lon="5.33013">
        <ele>335.97</ele>
        <time>2021-06-01T08:24:53Z</time>
      </trkpt>
      <trkpt lat="47.70779" lon="5.33012">
        <ele>335.97</ele>
        <time>2021-06-01T08:24:54Z</time>
      </trkpt>
      <trkpt lat="47.70768" lon="5.32984">
        <ele>335.64</ele>
        <time>2021-06-01T08:25:11Z</time>
      </trkpt>
      <trkpt lat="47.70765" lon="5.32967">
        <ele>335.47</ele>
        <time>2021-06-01T08:25:21Z</time>
      </trkpt>
      <trkpt lat="47.70767" lon="5.32934">
        <ele>335.09</ele>
        <time>2021-06-01T08:25:37Z</time>
      </trkpt>
      <trkpt lat="47.70767" lon="5.32931">
        <ele>335.04</ele>
        <time>2021-06-01T08:25:38Z</time>
      </trkpt>
      <trkpt lat="47.70768" lon="5.32928">
        <ele>334.99</ele>
        <time>2021-06-01T08:25:39Z</time>
      </trkpt>
      <trkpt lat="47.7077" lon="5.32898">
        <ele>334.38</ele>
        <time>2021-06-01T08:25:54Z</time>
      </trkpt>
      <trkpt lat="47.70775" lon="5.32856">
        <ele>333.38</ele>
        <time>2021-06-01T08:26:11Z</time>
      </trkpt>
      <trkpt lat="47.7079" lon="5.32825">
        <ele>332.62</ele>
        <time>2021-06-01T08:26:31Z</time>
      </trkpt>
      <trkpt lat="47.70806" lon="5.32787">
        <ele>331.95</ele>
        <time>2021-06-01T08:26:51Z</time>
      </trkpt>
      <trkpt lat="47.70812" lon="5.32764">
        <ele>331.64</ele>
        <time>2021-06-01T08:27:00Z</time>
      </trkpt>
      <trkpt lat="47.70813" lon="5.32762">
        <ele>331.6</ele>
        <time>2021-06-01T08:27:01Z</time>
      </trkpt>
      <trkpt lat="47.70814" lon="5.32761">
        <ele>331.56</ele>
        <time>2021-06-01T08:27:02Z</time>
      </trkpt>
      <trkpt lat="47.70815" lon="5.32759">
        <ele>331.54</ele>
        <time>2021-06-01T08:27:03Z</time>
      </trkpt>
      <trkpt lat="47.70816" lon="5.32757">
        <ele>331.52</ele>
        <time>2021-06-01T08:27:04Z</time>
      </trkpt>
      <trkpt lat="47.70818" lon="5.32754">
        <ele>331.45</ele>
        <time>2021-06-01T08:27:06Z</time>
      </trkpt>
      <trkpt lat="47.70819" lon="5.32753">
        <ele>331.45</ele>
        <time>2021-06-01T08:27:07Z</time>
      </trkpt>
      <trkpt lat="47.70826" lon="5.32733">
        <ele>331.1</ele>
        <time>2021-06-01T08:27:22Z</time>
      </trkpt>
      <trkpt lat="47.70824" lon="5.32728">
        <ele>330.65</ele>
        <time>2021-06-01T08:27:39Z</time>
      </trkpt>
      <trkpt lat="47.70818" lon="5.32718">
        <ele>328.62</ele>
        <time>2021-06-01T08:27:53Z</time>
      </trkpt>
      <trkpt lat="47.70801" lon="5.32708">
        <ele>326.2</ele>
        <time>2021-06-01T08:28:13Z</time>
      </trkpt>
      <trkpt lat="47.7078" lon="5.32694">
        <ele>323.86</ele>
        <time>2021-06-01T08:28:35Z</time>
      </trkpt>
      <trkpt lat="47.7076" lon="5.32699">
        <ele>322.3</ele>
        <time>2021-06-01T08:28:58Z</time>
      </trkpt>
      <trkpt lat="47.70753" lon="5.32727">
        <ele>324.96</ele>
        <time>2021-06-01T08:29:20Z</time>
      </trkpt>
      <trkpt lat="47.7075" lon="5.32755">
        <ele>325.82</ele>
        <time>2021-06-01T08:29:40Z</time>
      </trkpt>
      <trkpt lat="47.70739" lon="5.32781">
        <ele>327.1</ele>
        <time>2021-06-01T08:30:04Z</time>
      </trkpt>
      <trkpt lat="47.70739" lon="5.32814">
        <ele>328.99</ele>
        <time>2021-06-01T08:30:25Z</time>
      </trkpt>
      <trkpt lat="47.7074" lon="5.3282">
        <ele>329.88</ele>
        <time>2021-06-01T08:30:31Z</time>
      </trkpt>
      <trkpt lat="47.70733" lon="5.32857">
        <ele>329.98</ele>
        <time>2021-06-01T08:30:55Z</time>
      </trkpt>
      <trkpt lat="47.70733" lon="5.32864">
        <ele>329.96</ele>
        <time>2021-06-01T08:31:00Z</time>
      </trkpt>
      <trkpt lat="47.70728" lon="5.32897">
        <ele>330.15</ele>
        <time>2021-06-01T08:31:21Z</time>
      </trkpt>
      <trkpt lat="47.70719" lon="5.32901">
        <ele>327.66</ele>
        <time>2021-06-01T08:31:38Z</time>
      </trkpt>
      <trkpt lat="47.70716" lon="5.32899">
        <ele>327</ele>
        <time>2021-06-01T08:31:41Z</time>
      </trkpt>
      <trkpt lat="47.70712" lon="5.32898">
        <ele>326.32</ele>
        <time>2021-06-01T08:31:45Z</time>
      </trkpt>
      <trkpt lat="47.70702" lon="5.32886">
        <ele>324.4</ele>
        <time>2021-06-01T08:31:59Z</time>
      </trkpt>
      <trkpt lat="47.70691" lon="5.32883">
        <ele>320.91</ele>
        <time>2021-06-01T08:32:12Z</time>
      </trkpt>
      <trkpt lat="47.70681" lon="5.32876">
        <ele>317.83</ele>
        <time>2021-06-01T08:32:25Z</time>
      </trkpt>
      <trkpt lat="47.70675" lon="5.32883">
        <ele>314.96</ele>
        <time>2021-06-01T08:32:36Z</time>
      </trkpt>
      <trkpt lat="47.70661" lon="5.32875">
        <ele>311.59</ele>
        <time>2021-06-01T08:32:57Z</time>
      </trkpt>
      <trkpt lat="47.70661" lon="5.32872">
        <ele>310.82</ele>
        <time>2021-06-01T08:33:20Z</time>
      </trkpt>
      <trkpt lat="47.70655" lon="5.3287">
        <ele>310.5</ele>
        <time>2021-06-01T08:33:37Z</time>
      </trkpt>
      <trkpt lat="47.7063" lon="5.32893">
        <ele>311.34</ele>
        <time>2021-06-01T08:34:02Z</time>
      </trkpt>
      <trkpt lat="47.70624" lon="5.32897">
        <ele>312.41</ele>
        <time>2021-06-01T08:34:10Z</time>
      </trkpt>
      <trkpt lat="47.70612" lon="5.32898">
        <ele>313.88</ele>
        <time>2021-06-01T08:34:21Z</time>
      </trkpt>
      <trkpt lat="47.70609" lon="5.32902">
        <ele>314.45</ele>
        <time>2021-06-01T08:34:25Z</time>
      </trkpt>
      <trkpt lat="47.70607" lon="5.32906">
        <ele>315.65</ele>
        <time>2021-06-01T08:34:31Z</time>
      </trkpt>
      <trkpt lat="47.70592" lon="5.32921">
        <ele>318.98</ele>
        <time>2021-06-01T08:34:47Z</time>
      </trkpt>
      <trkpt lat="47.70577" lon="5.32923">
        <ele>319.71</ele>
        <time>2021-06-01T08:35:04Z</time>
      </trkpt>
      <trkpt lat="47.70572" lon="5.32903">
        <ele>316.37</ele>
        <time>2021-06-01T08:35:23Z</time>
      </trkpt>
      <trkpt lat="47.70572" lon="5.3289">
        <ele>314.05</ele>
        <time>2021-06-01T08:35:34Z</time>
      </trkpt>
      <trkpt lat="47.70559" lon="5.32867">
        <ele>312.13</ele>
        <time>2021-06-01T08:35:55Z</time>
      </trkpt>
      <trkpt lat="47.70533" lon="5.32848">
        <ele>310.66</ele>
        <time>2021-06-01T08:36:17Z</time>
      </trkpt>
      <trkpt lat="47.70508" lon="5.32843">
        <ele>309.36</ele>
        <time>2021-06-01T08:36:38Z</time>
      </trkpt>
      <trkpt lat="47.70482" lon="5.32854">
        <ele>307.52</ele>
        <time>2021-06-01T08:37:01Z</time>
      </trkpt>
      <trkpt lat="47.70462" lon="5.32875">
        <ele>305.86</ele>
        <time>2021-06-01T08:37:21Z</time>
      </trkpt>
      <trkpt lat="47.70455" lon="5.32887">
        <ele>305.38</ele>
        <time>2021-06-01T08:37:27Z</time>
      </trkpt>
      <trkpt lat="47.70446" lon="5.3291">
        <ele>304.78</ele>
        <time>2021-06-01T08:37:41Z</time>
      </trkpt>
      <trkpt lat="47.70435" lon="5.32941">
        <ele>304.67</ele>
        <time>2021-06-01T08:38:02Z</time>
      </trkpt>
      <trkpt lat="47.70433" lon="5.32948">
        <ele>304.52</ele>
        <time>2021-06-01T08:38:07Z</time>
      </trkpt>
      <trkpt lat="47.7042" lon="5.32977">
        <ele>303.87</ele>
        <time>2021-06-01T08:38:31Z</time>
      </trkpt>
      <trkpt lat="47.70404" lon="5.33">
        <ele>301.85</ele>
        <time>2021-06-01T08:38:49Z</time>
      </trkpt>
      <trkpt lat="47.70401" lon="5.33006">
        <ele>301.08</ele>
        <time>2021-06-01T08:39:11Z</time>
      </trkpt>
      <trkpt lat="47.704" lon="5.3301">
        <ele>301.37</ele>
        <time>2021-06-01T08:39:35Z</time>
      </trkpt>
      <trkpt lat="47.704" lon="5.33012">
        <ele>301.36</ele>
        <time>2021-06-01T08:39:36Z</time>
      </trkpt>
      <trkpt lat="47.70399" lon="5.33014">
        <ele>301.35</ele>
        <time>2021-06-01T08:39:37Z</time>
      </trkpt>
      <trkpt lat="47.7039" lon="5.33037">
        <ele>301.76</ele>
        <time>2021-06-01T08:39:55Z</time>
      </trkpt>
      <trkpt lat="47.70383" lon="5.33054">
        <ele>302.25</ele>
        <time>2021-06-01T08:40:04Z</time>
      </trkpt>
      <trkpt lat="47.70374" lon="5.33077">
        <ele>303.52</ele>
        <time>2021-06-01T08:40:18Z</time>
      </trkpt>
      <trkpt lat="47.70369" lon="5.33091">
        <ele>304</ele>
        <time>2021-06-01T08:40:25Z</time>
      </trkpt>
      <trkpt lat="47.70368" lon="5.33093">
        <ele>304.12</ele>
        <time>2021-06-01T08:40:26Z</time>
      </trkpt>
      <trkpt lat="47.70368" lon="5.33095">
        <ele>304.3</ele>
        <time>2021-06-01T08:40:27Z</time>
      </trkpt>
      <trkpt lat="47.70366" lon="5.33097">
        <ele>304.42</ele>
        <time>2021-06-01T08:40:28Z</time>
      </trkpt>
      <trkpt lat="47.70365" lon="5.33099">
        <ele>304.54</ele>
        <time>2021-06-01T08:40:29Z</time>
      </trkpt>
      <trkpt lat="47.70365" lon="5.33101">
        <ele>304.63</ele>
        <time>2021-06-01T08:40:30Z</time>
      </trkpt>
      <trkpt lat="47.70346" lon="5.33139">
        <ele>307.34</ele>
        <time>2021-06-01T08:40:50Z</time>
      </trkpt>
      <trkpt lat="47.70333" lon="5.33172">
        <ele>309.58</ele>
        <time>2021-06-01T08:41:06Z</time>
      </trkpt>
      <trkpt lat="47.70332" lon="5.33173">
        <ele>309.64</ele>
        <time>2021-06-01T08:41:07Z</time>
      </trkpt>
      <trkpt lat="47.70316" lon="5.33201">
        <ele>309.34</ele>
        <time>2021-06-01T08:41:22Z</time>
      </trkpt>
      <trkpt lat="47.70294" lon="5.33228">
        <ele>309.52</ele>
        <time>2021-06-01T08:41:39Z</time>
      </trkpt>
      <trkpt lat="47.70269" lon="5.33261">
        <ele>311.47</ele>
        <time>2021-06-01T08:41:58Z</time>
      </trkpt>
      <trkpt lat="47.70252" lon="5.33286">
        <ele>313.18</ele>
        <time>2021-06-01T08:42:13Z</time>
      </trkpt>
      <trkpt lat="47.7023" lon="5.33314">
        <ele>314.07</ele>
        <time>2021-06-01T08:42:30Z</time>
      </trkpt>
      <trkpt lat="47.70213" lon="5.33352">
        <ele>314.53</ele>
        <time>2021-06-01T08:42:49Z</time>
      </trkpt>
      <trkpt lat="47.70196" lon="5.33398">
        <ele>314.68</ele>
        <time>2021-06-01T08:43:10Z</time>
      </trkpt>
      <trkpt lat="47.70182" lon="5.3343">
        <ele>314.33</ele>
        <time>2021-06-01T08:43:27Z</time>
      </trkpt>
      <trkpt lat="47.70178" lon="5.33437">
        <ele>314.35</ele>
        <time>2021-06-01T08:43:31Z</time>
      </trkpt>
      <trkpt lat="47.70177" lon="5.33438">
        <ele>314.35</ele>
        <time>2021-06-01T08:43:32Z</time>
      </trkpt>
      <trkpt lat="47.70168" lon="5.33456">
        <ele>314.92</ele>
        <time>2021-06-01T08:43:47Z</time>
      </trkpt>
      <trkpt lat="47.7014" lon="5.33482">
        <ele>316.03</ele>
        <time>2021-06-01T08:44:05Z</time>
      </trkpt>
      <trkpt lat="47.70113" lon="5.33509">
        <ele>316.68</ele>
        <time>2021-06-01T08:44:25Z</time>
      </trkpt>
      <trkpt lat="47.70113" lon="5.33511">
        <ele>316.66</ele>
        <time>2021-06-01T08:44:26Z</time>
      </trkpt>
      <trkpt lat="47.70112" lon="5.33513">
        <ele>316.64</ele>
        <time>2021-06-01T08:44:27Z</time>
      </trkpt>
      <trkpt lat="47.70087" lon="5.33542">
        <ele>317.08</ele>
        <time>2021-06-01T08:44:47Z</time>
      </trkpt>
      <trkpt lat="47.70066" lon="5.33568">
        <ele>317.28</ele>
        <time>2021-06-01T08:45:04Z</time>
      </trkpt>
      <trkpt lat="47.70049" lon="5.33616">
        <ele>318.37</ele>
        <time>2021-06-01T08:45:24Z</time>
      </trkpt>
      <trkpt lat="47.70037" lon="5.33643">
        <ele>318.35</ele>
        <time>2021-06-01T08:45:39Z</time>
      </trkpt>
      <trkpt lat="47.70021" lon="5.33671">
        <ele>318.5</ele>
        <time>2021-06-01T08:45:56Z</time>
      </trkpt>
      <trkpt lat="47.7" lon="5.33702">
        <ele>318.42</ele>
        <time>2021-06-01T08:46:13Z</time>
      </trkpt>
      <trkpt lat="47.69982" lon="5.3374">
        <ele>317.97</ele>
        <time>2021-06-01T08:46:32Z</time>
      </trkpt>
      <trkpt lat="47.69974" lon="5.33765">
        <ele>317.71</ele>
        <time>2021-06-01T08:46:43Z</time>
      </trkpt>
      <trkpt lat="47.69974" lon="5.33767">
        <ele>317.7</ele>
        <time>2021-06-01T08:46:44Z</time>
      </trkpt>
      <trkpt lat="47.69974" lon="5.3377">
        <ele>317.66</ele>
        <time>2021-06-01T08:46:45Z</time>
      </trkpt>
      <trkpt lat="47.69973" lon="5.33778">
        <ele>317.43</ele>
        <time>2021-06-01T08:46:48Z</time>
      </trkpt>
      <trkpt lat="47.69972" lon="5.33781">
        <ele>317.39</ele>
        <time>2021-06-01T08:46:49Z</time>
      </trkpt>
      <trkpt lat="47.69972" lon="5.33784">
        <ele>317.34</ele>
        <time>2021-06-01T08:46:50Z</time>
      </trkpt>
      <trkpt lat="47.69958" lon="5.33829">
        <ele>316.59</ele>
        <time>2021-06-01T08:47:11Z</time>
      </trkpt>
      <trkpt lat="47.69957" lon="5.33882">
        <ele>316.15</ele>
        <time>2021-06-01T08:47:34Z</time>
      </trkpt>
      <trkpt lat="47.69959" lon="5.33928">
        <ele>316.26</ele>
        <time>2021-06-01T08:47:54Z</time>
      </trkpt>
      <trkpt lat="47.69942" lon="5.33961">
        <ele>316.05</ele>
        <time>2021-06-01T08:48:12Z</time>
      </trkpt>
      <trkpt lat="47.69928" lon="5.33965">
        <ele>316.03</ele>
        <time>2021-06-01T08:48:22Z</time>
      </trkpt>
      <trkpt lat="47.69927" lon="5.33965">
        <ele>316.03</ele>
        <time>2021-06-01T08:48:23Z</time>
      </trkpt>
      <trkpt lat="47.69908" lon="5.33961">
        <ele>316.66</ele>
        <time>2021-06-01T08:48:38Z</time>
      </trkpt>
      <trkpt lat="47.69881" lon="5.33959">
        <ele>317.7</ele>
        <time>2021-06-01T08:48:55Z</time>
      </trkpt>
      <trkpt lat="47.69874" lon="5.33959">
        <ele>317.75</ele>
        <time>2021-06-01T08:48:59Z</time>
      </trkpt>
      <trkpt lat="47.69848" lon="5.33953">
        <ele>318.62</ele>
        <time>2021-06-01T08:49:18Z</time>
      </trkpt>
      <trkpt lat="47.69823" lon="5.33952">
        <ele>319.33</ele>
        <time>2021-06-01T08:49:34Z</time>
      </trkpt>
      <trkpt lat="47.69822" lon="5.33952">
        <ele>319.34</ele>
        <time>2021-06-01T08:49:35Z</time>
      </trkpt>
      <trkpt lat="47.69787" lon="5.33961">
        <ele>319.88</ele>
        <time>2021-06-01T08:49:53Z</time>
      </trkpt>
      <trkpt lat="47.69751" lon="5.33963">
        <ele>320.49</ele>
        <time>2021-06-01T08:50:15Z</time>
      </trkpt>
      <trkpt lat="47.69715" lon="5.33952">
        <ele>321.22</ele>
        <time>2021-06-01T08:50:39Z</time>
      </trkpt>
      <trkpt lat="47.69684" lon="5.33947">
        <ele>321.75</ele>
        <time>2021-06-01T08:51:00Z</time>
      </trkpt>
      <trkpt lat="47.69651" lon="5.33963">
        <ele>321.94</ele>
        <time>2021-06-01T08:51:21Z</time>
      </trkpt>
      <trkpt lat="47.6962" lon="5.3398">
        <ele>322.99</ele>
        <time>2021-06-01T08:51:43Z</time>
      </trkpt>
      <trkpt lat="47.69604" lon="5.3399">
        <ele>323.4</ele>
        <time>2021-06-01T08:51:59Z</time>
      </trkpt>
      <trkpt lat="47.69609" lon="5.33987">
        <ele>324.1</ele>
        <time>2021-06-01T08:52:12Z</time>
      </trkpt>
      <trkpt lat="47.6961" lon="5.33986">
        <ele>323.51</ele>
        <time>2021-06-01T08:52:28Z</time>
      </trkpt>
      <trkpt lat="47.69607" lon="5.33987">
        <ele>323.62</ele>
        <time>2021-06-01T08:52:33Z</time>
      </trkpt>
      <trkpt lat="47.69603" lon="5.33989">
        <ele>323.65</ele>
        <time>2021-06-01T08:52:36Z</time>
      </trkpt>
      <trkpt lat="47.69574" lon="5.34005">
        <ele>323.93</ele>
        <time>2021-06-01T08:52:56Z</time>
      </trkpt>
      <trkpt lat="47.69552" lon="5.3402">
        <ele>323.78</ele>
        <time>2021-06-01T08:53:14Z</time>
      </trkpt>
      <trkpt lat="47.69544" lon="5.34024">
        <ele>323.84</ele>
        <time>2021-06-01T08:53:25Z</time>
      </trkpt>
      <trkpt lat="47.69542" lon="5.34025">
        <ele>323.76</ele>
        <time>2021-06-01T08:53:27Z</time>
      </trkpt>
      <trkpt lat="47.69541" lon="5.34026">
        <ele>323.63</ele>
        <time>2021-06-01T08:53:28Z</time>
      </trkpt>
      <trkpt lat="47.6954" lon="5.34027">
        <ele>323.7</ele>
        <time>2021-06-01T08:53:29Z</time>
      </trkpt>
      <trkpt lat="47.69538" lon="5.34028">
        <ele>323.69</ele>
        <time>2021-06-01T08:53:30Z</time>
      </trkpt>
      <trkpt lat="47.69537" lon="5.34029">
        <ele>323.61</ele>
        <time>2021-06-01T08:53:31Z</time>
      </trkpt>
      <trkpt lat="47.69528" lon="5.34035">
        <ele>323.11</ele>
        <time>2021-06-01T08:53:47Z</time>
      </trkpt>
      <trkpt lat="47.69527" lon="5.34035">
        <ele>323.27</ele>
        <time>2021-06-01T08:54:07Z</time>
      </trkpt>
      <trkpt lat="47.69523" lon="5.34037">
        <ele>322.58</ele>
        <time>2021-06-01T08:54:14Z</time>
      </trkpt>
      <trkpt lat="47.69519" lon="5.3404">
        <ele>322.31</ele>
        <time>2021-06-01T08:54:18Z</time>
      </trkpt>
      <trkpt lat="47.69518" lon="5.3404">
        <ele>322.29</ele>
        <time>2021-06-01T08:54:19Z</time>
      </trkpt>
      <trkpt lat="47.69517" lon="5.34041">
        <ele>322.26</ele>
        <time>2021-06-01T08:54:20Z</time>
      </trkpt>
      <trkpt lat="47.695" lon="5.34056">
        <ele>321.86</ele>
        <time>2021-06-01T08:54:37Z</time>
      </trkpt>
      <trkpt lat="47.69488" lon="5.34081">
        <ele>321.6</ele>
        <time>2021-06-01T08:54:51Z</time>
      </trkpt>
      <trkpt lat="47.69476" lon="5.34115">
        <ele>322.29</ele>
        <time>2021-06-01T08:55:09Z</time>
      </trkpt>
      <trkpt lat="47.69476" lon="5.34117">
        <ele>322.14</ele>
        <time>2021-06-01T08:55:10Z</time>
      </trkpt>
      <trkpt lat="47.69476" lon="5.34119">
        <ele>322</ele>
        <time>2021-06-01T08:55:11Z</time>
      </trkpt>
      <trkpt lat="47.69475" lon="5.34121">
        <ele>321.89</ele>
        <time>2021-06-01T08:55:12Z</time>
      </trkpt>
      <trkpt lat="47.6947" lon="5.34135">
        <ele>320.98</ele>
        <time>2021-06-01T08:55:29Z</time>
      </trkpt>
      <trkpt lat="47.6947" lon="5.34137">
        <ele>320.96</ele>
        <time>2021-06-01T08:55:50Z</time>
      </trkpt>
      <trkpt lat="47.6947" lon="5.34137">
        <ele>321.4</ele>
        <time>2021-06-01T08:56:01Z</time>
      </trkpt>
      <trkpt lat="47.69485" lon="5.34124">
        <ele>321.81</ele>
        <time>2021-06-01T08:57:12Z</time>
      </trkpt>
      <trkpt lat="47.69487" lon="5.3412">
        <ele>321.94</ele>
        <time>2021-06-01T08:57:15Z</time>
      </trkpt>
      <trkpt lat="47.69488" lon="5.34119">
        <ele>321.99</ele>
        <time>2021-06-01T08:57:16Z</time>
      </trkpt>
      <trkpt lat="47.6949" lon="5.34114">
        <ele>322.11</ele>
        <time>2021-06-01T08:57:20Z</time>
      </trkpt>
      <trkpt lat="47.6949" lon="5.34112">
        <ele>322.14</ele>
        <time>2021-06-01T08:57:21Z</time>
      </trkpt>
      <trkpt lat="47.69491" lon="5.34111">
        <ele>322.19</ele>
        <time>2021-06-01T08:57:22Z</time>
      </trkpt>
      <trkpt lat="47.69498" lon="5.34096">
        <ele>322.76</ele>
        <time>2021-06-01T08:57:36Z</time>
      </trkpt>
      <trkpt lat="47.69499" lon="5.34094">
        <ele>323.01</ele>
        <time>2021-06-01T08:57:51Z</time>
      </trkpt>
      <trkpt lat="47.69501" lon="5.34088">
        <ele>323.03</ele>
        <time>2021-06-01T08:58:04Z</time>
      </trkpt>
      <trkpt lat="47.69502" lon="5.34088">
        <ele>323.13</ele>
        <time>2021-06-01T08:58:18Z</time>
      </trkpt>
      <trkpt lat="47.69502" lon="5.34087">
        <ele>323.16</ele>
        <time>2021-06-01T08:58:36Z</time>
      </trkpt>
      <trkpt lat="47.69502" lon="5.34087">
        <ele>323.26</ele>
        <time>2021-06-01T08:58:49Z</time>
      </trkpt>
      <trkpt lat="47.69484" lon="5.34125">
        <ele>322.74</ele>
        <time>2021-06-01T09:01:08Z</time>
      </trkpt>
      <trkpt lat="47.69465" lon="5.34153">
        <ele>321.89</ele>
        <time>2021-06-01T09:01:24Z</time>
      </trkpt>
      <trkpt lat="47.69451" lon="5.34176">
        <ele>321.04</ele>
        <time>2021-06-01T09:01:40Z</time>
      </trkpt>
      <trkpt lat="47.6945" lon="5.34178">
        <ele>320.99</ele>
        <time>2021-06-01T09:01:43Z</time>
      </trkpt>
      <trkpt lat="47.69449" lon="5.34179">
        <ele>320.95</ele>
        <time>2021-06-01T09:01:44Z</time>
      </trkpt>
      <trkpt lat="47.69448" lon="5.34181">
        <ele>320.9</ele>
        <time>2021-06-01T09:01:45Z</time>
      </trkpt>
      <trkpt lat="47.69447" lon="5.34183">
        <ele>320.82</ele>
        <time>2021-06-01T09:01:46Z</time>
      </trkpt>
      <trkpt lat="47.69446" lon="5.34185">
        <ele>320.73</ele>
        <time>2021-06-01T09:01:47Z</time>
      </trkpt>
      <trkpt lat="47.69427" lon="5.34208">
        <ele>318.98</ele>
        <time>2021-06-01T09:02:05Z</time>
      </trkpt>
      <trkpt lat="47.69409" lon="5.34221">
        <ele>317.92</ele>
        <time>2021-06-01T09:02:21Z</time>
      </trkpt>
      <trkpt lat="47.694" lon="5.34227">
        <ele>317.99</ele>
        <time>2021-06-01T09:02:32Z</time>
      </trkpt>
      <trkpt lat="47.69395" lon="5.3423">
        <ele>317.99</ele>
        <time>2021-06-01T09:02:35Z</time>
      </trkpt>
      <trkpt lat="47.69363" lon="5.34251">
        <ele>318.08</ele>
        <time>2021-06-01T09:02:55Z</time>
      </trkpt>
      <trkpt lat="47.69338" lon="5.3427">
        <ele>316.72</ele>
        <time>2021-06-01T09:03:11Z</time>
      </trkpt>
      <trkpt lat="47.69316" lon="5.34289">
        <ele>315.69</ele>
        <time>2021-06-01T09:03:29Z</time>
      </trkpt>
      <trkpt lat="47.69299" lon="5.34304">
        <ele>315.17</ele>
        <time>2021-06-01T09:03:42Z</time>
      </trkpt>
      <trkpt lat="47.69272" lon="5.34329">
        <ele>313.5</ele>
        <time>2021-06-01T09:04:00Z</time>
      </trkpt>
      <trkpt lat="47.69251" lon="5.34347">
        <ele>312.05</ele>
        <time>2021-06-01T09:04:14Z</time>
      </trkpt>
      <trkpt lat="47.69247" lon="5.3435">
        <ele>311.68</ele>
        <time>2021-06-01T09:04:17Z</time>
      </trkpt>
      <trkpt lat="47.69215" lon="5.34374">
        <ele>309.63</ele>
        <time>2021-06-01T09:04:38Z</time>
      </trkpt>
      <trkpt lat="47.69199" lon="5.34392">
        <ele>308.79</ele>
        <time>2021-06-01T09:04:53Z</time>
      </trkpt>
      <trkpt lat="47.69189" lon="5.34399">
        <ele>307.58</ele>
        <time>2021-06-01T09:05:03Z</time>
      </trkpt>
      <trkpt lat="47.6917" lon="5.34412">
        <ele>305.31</ele>
        <time>2021-06-01T09:05:19Z</time>
      </trkpt>
      <trkpt lat="47.6915" lon="5.34418">
        <ele>303.23</ele>
        <time>2021-06-01T09:05:33Z</time>
      </trkpt>
      <trkpt lat="47.69143" lon="5.3442">
        <ele>302.7</ele>
        <time>2021-06-01T09:05:38Z</time>
      </trkpt>
      <trkpt lat="47.69141" lon="5.3442">
        <ele>302.58</ele>
        <time>2021-06-01T09:05:39Z</time>
      </trkpt>
      <trkpt lat="47.6914" lon="5.3442">
        <ele>302.55</ele>
        <time>2021-06-01T09:05:40Z</time>
      </trkpt>
      <trkpt lat="47.69139" lon="5.3442">
        <ele>302.49</ele>
        <time>2021-06-01T09:05:41Z</time>
      </trkpt>
      <trkpt lat="47.69138" lon="5.34419">
        <ele>302.39</ele>
        <time>2021-06-01T09:05:42Z</time>
      </trkpt>
      <trkpt lat="47.69136" lon="5.34419">
        <ele>302.25</ele>
        <time>2021-06-01T09:05:43Z</time>
      </trkpt>
      <trkpt lat="47.69112" lon="5.34416">
        <ele>299.86</ele>
        <time>2021-06-01T09:06:01Z</time>
      </trkpt>
      <trkpt lat="47.69107" lon="5.34416">
        <ele>299.3</ele>
        <time>2021-06-01T09:06:05Z</time>
      </trkpt>
      <trkpt lat="47.69105" lon="5.34415">
        <ele>299.05</ele>
        <time>2021-06-01T09:06:06Z</time>
      </trkpt>
      <trkpt lat="47.69102" lon="5.34414">
        <ele>298.74</ele>
        <time>2021-06-01T09:06:08Z</time>
      </trkpt>
      <trkpt lat="47.69101" lon="5.34414">
        <ele>298.61</ele>
        <time>2021-06-01T09:06:09Z</time>
      </trkpt>
      <trkpt lat="47.691" lon="5.34414">
        <ele>298.49</ele>
        <time>2021-06-01T09:06:10Z</time>
      </trkpt>
      <trkpt lat="47.69076" lon="5.34422">
        <ele>296.87</ele>
        <time>2021-06-01T09:06:22Z</time>
      </trkpt>
      <trkpt lat="47.69058" lon="5.34433">
        <ele>295.05</ele>
        <time>2021-06-01T09:06:34Z</time>
      </trkpt>
      <trkpt lat="47.69029" lon="5.34451">
        <ele>292.47</ele>
        <time>2021-06-01T09:06:51Z</time>
      </trkpt>
      <trkpt lat="47.69001" lon="5.34469">
        <ele>290.01</ele>
        <time>2021-06-01T09:07:10Z</time>
      </trkpt>
      <trkpt lat="47.68978" lon="5.34482">
        <ele>288.65</ele>
        <time>2021-06-01T09:07:27Z</time>
      </trkpt>
      <trkpt lat="47.68943" lon="5.34499">
        <ele>287.63</ele>
        <time>2021-06-01T09:07:52Z</time>
      </trkpt>
      <trkpt lat="47.68912" lon="5.34516">
        <ele>286.44</ele>
        <time>2021-06-01T09:08:14Z</time>
      </trkpt>
      <trkpt lat="47.68893" lon="5.3454">
        <ele>286.71</ele>
        <time>2021-06-01T09:08:32Z</time>
      </trkpt>
      <trkpt lat="47.68877" lon="5.34563">
        <ele>287.55</ele>
        <time>2021-06-01T09:08:50Z</time>
      </trkpt>
      <trkpt lat="47.68875" lon="5.34565">
        <ele>287.59</ele>
        <time>2021-06-01T09:08:52Z</time>
      </trkpt>
      <trkpt lat="47.68873" lon="5.34566">
        <ele>287.65</ele>
        <time>2021-06-01T09:08:53Z</time>
      </trkpt>
      <trkpt lat="47.68872" lon="5.34567">
        <ele>287.74</ele>
        <time>2021-06-01T09:08:54Z</time>
      </trkpt>
      <trkpt lat="47.68871" lon="5.34568">
        <ele>287.91</ele>
        <time>2021-06-01T09:08:55Z</time>
      </trkpt>
      <trkpt lat="47.6887" lon="5.3457">
        <ele>287.93</ele>
        <time>2021-06-01T09:08:56Z</time>
      </trkpt>
      <trkpt lat="47.68868" lon="5.34571">
        <ele>287.94</ele>
        <time>2021-06-01T09:08:57Z</time>
      </trkpt>
      <trkpt lat="47.68867" lon="5.34572">
        <ele>287.95</ele>
        <time>2021-06-01T09:08:58Z</time>
      </trkpt>
      <trkpt lat="47.6884" lon="5.34587">
        <ele>286.78</ele>
        <time>2021-06-01T09:09:20Z</time>
      </trkpt>
      <trkpt lat="47.6881" lon="5.34596">
        <ele>285.55</ele>
        <time>2021-06-01T09:09:42Z</time>
      </trkpt>
      <trkpt lat="47.68797" lon="5.34614">
        <ele>286.85</ele>
        <time>2021-06-01T09:09:56Z</time>
      </trkpt>
      <trkpt lat="47.68794" lon="5.34623">
        <ele>287.32</ele>
        <time>2021-06-01T09:10:03Z</time>
      </trkpt>
      <trkpt lat="47.68793" lon="5.34625">
        <ele>287.47</ele>
        <time>2021-06-01T09:10:04Z</time>
      </trkpt>
      <trkpt lat="47.68789" lon="5.34656">
        <ele>289.42</ele>
        <time>2021-06-01T09:10:20Z</time>
      </trkpt>
      <trkpt lat="47.68794" lon="5.3469">
        <ele>291.35</ele>
        <time>2021-06-01T09:10:37Z</time>
      </trkpt>
      <trkpt lat="47.68801" lon="5.34717">
        <ele>292.06</ele>
        <time>2021-06-01T09:10:53Z</time>
      </trkpt>
      <trkpt lat="47.68812" lon="5.34745">
        <ele>292.88</ele>
        <time>2021-06-01T09:11:10Z</time>
      </trkpt>
      <trkpt lat="47.68829" lon="5.34785">
        <ele>293.47</ele>
        <time>2021-06-01T09:11:32Z</time>
      </trkpt>
      <trkpt lat="47.68845" lon="5.34805">
        <ele>293.93</ele>
        <time>2021-06-01T09:11:48Z</time>
      </trkpt>
      <trkpt lat="47.68856" lon="5.34815">
        <ele>294.49</ele>
        <time>2021-06-01T09:12:01Z</time>
      </trkpt>
      <trkpt lat="47.68858" lon="5.34816">
        <ele>294.56</ele>
        <time>2021-06-01T09:12:02Z</time>
      </trkpt>
      <trkpt lat="47.68858" lon="5.34817">
        <ele>294.67</ele>
        <time>2021-06-01T09:12:03Z</time>
      </trkpt>
      <trkpt lat="47.68859" lon="5.34819">
        <ele>294.79</ele>
        <time>2021-06-01T09:12:04Z</time>
      </trkpt>
      <trkpt lat="47.6886" lon="5.3482">
        <ele>294.9</ele>
        <time>2021-06-01T09:12:05Z</time>
      </trkpt>
      <trkpt lat="47.68861" lon="5.34821">
        <ele>295.04</ele>
        <time>2021-06-01T09:12:06Z</time>
      </trkpt>
      <trkpt lat="47.68862" lon="5.34822">
        <ele>295.26</ele>
        <time>2021-06-01T09:12:07Z</time>
      </trkpt>
      <trkpt lat="47.68882" lon="5.34853">
        <ele>298.27</ele>
        <time>2021-06-01T09:12:26Z</time>
      </trkpt>
      <trkpt lat="47.689" lon="5.34883">
        <ele>300.02</ele>
        <time>2021-06-01T09:12:46Z</time>
      </trkpt>
      <trkpt lat="47.68916" lon="5.3491">
        <ele>300.86</ele>
        <time>2021-06-01T09:13:04Z</time>
      </trkpt>
      <trkpt lat="47.68932" lon="5.34938">
        <ele>300.84</ele>
        <time>2021-06-01T09:13:21Z</time>
      </trkpt>
      <trkpt lat="47.68949" lon="5.34983">
        <ele>300.54</ele>
        <time>2021-06-01T09:13:44Z</time>
      </trkpt>
      <trkpt lat="47.68967" lon="5.35029">
        <ele>301.35</ele>
        <time>2021-06-01T09:14:07Z</time>
      </trkpt>
      <trkpt lat="47.68986" lon="5.35073">
        <ele>301.9</ele>
        <time>2021-06-01T09:14:31Z</time>
      </trkpt>
      <trkpt lat="47.68997" lon="5.35092">
        <ele>302</ele>
        <time>2021-06-01T09:14:42Z</time>
      </trkpt>
      <trkpt lat="47.69009" lon="5.35112">
        <ele>302.39</ele>
        <time>2021-06-01T09:14:54Z</time>
      </trkpt>
      <trkpt lat="47.6903" lon="5.35142">
        <ele>303.26</ele>
        <time>2021-06-01T09:15:18Z</time>
      </trkpt>
      <trkpt lat="47.69032" lon="5.35145">
        <ele>303.76</ele>
        <time>2021-06-01T09:15:34Z</time>
      </trkpt>
      <trkpt lat="47.69034" lon="5.35147">
        <ele>303.76</ele>
        <time>2021-06-01T09:15:36Z</time>
      </trkpt>
      <trkpt lat="47.69037" lon="5.3515">
        <ele>303.74</ele>
        <time>2021-06-01T09:15:39Z</time>
      </trkpt>
      <trkpt lat="47.69038" lon="5.35151">
        <ele>303.74</ele>
        <time>2021-06-01T09:15:40Z</time>
      </trkpt>
      <trkpt lat="47.69039" lon="5.35152">
        <ele>303.79</ele>
        <time>2021-06-01T09:15:41Z</time>
      </trkpt>
      <trkpt lat="47.69041" lon="5.35153">
        <ele>303.86</ele>
        <time>2021-06-01T09:15:42Z</time>
      </trkpt>
      <trkpt lat="47.69042" lon="5.35154">
        <ele>303.92</ele>
        <time>2021-06-01T09:15:43Z</time>
      </trkpt>
      <trkpt lat="47.69043" lon="5.35155">
        <ele>303.99</ele>
        <time>2021-06-01T09:15:44Z</time>
      </trkpt>
      <trkpt lat="47.69044" lon="5.35156">
        <ele>304.06</ele>
        <time>2021-06-01T09:15:45Z</time>
      </trkpt>
      <trkpt lat="47.69074" lon="5.35191">
        <ele>305.67</ele>
        <time>2021-06-01T09:16:12Z</time>
      </trkpt>
      <trkpt lat="47.69095" lon="5.35225">
        <ele>306.79</ele>
        <time>2021-06-01T09:16:34Z</time>
      </trkpt>
      <trkpt lat="47.69119" lon="5.35244">
        <ele>307.56</ele>
        <time>2021-06-01T09:16:54Z</time>
      </trkpt>
      <trkpt lat="47.69152" lon="5.35261">
        <ele>308.92</ele>
        <time>2021-06-01T09:17:19Z</time>
      </trkpt>
      <trkpt lat="47.69178" lon="5.35301">
        <ele>310.32</ele>
        <time>2021-06-01T09:17:46Z</time>
      </trkpt>
      <trkpt lat="47.692" lon="5.35325">
        <ele>312.38</ele>
        <time>2021-06-01T09:18:08Z</time>
      </trkpt>
      <trkpt lat="47.69219" lon="5.35338">
        <ele>314.58</ele>
        <time>2021-06-01T09:18:25Z</time>
      </trkpt>
      <trkpt lat="47.69239" lon="5.35334">
        <ele>316.59</ele>
        <time>2021-06-01T09:18:41Z</time>
      </trkpt>
      <trkpt lat="47.69259" lon="5.35315">
        <ele>318.7</ele>
        <time>2021-06-01T09:19:00Z</time>
      </trkpt>
      <trkpt lat="47.69283" lon="5.35297">
        <ele>320.66</ele>
        <time>2021-06-01T09:19:22Z</time>
      </trkpt>
      <trkpt lat="47.69309" lon="5.35293">
        <ele>322.88</ele>
        <time>2021-06-01T09:19:41Z</time>
      </trkpt>
      <trkpt lat="47.6934" lon="5.35299">
        <ele>324.2</ele>
        <time>2021-06-01T09:20:04Z</time>
      </trkpt>
      <trkpt lat="47.69371" lon="5.35315">
        <ele>325.05</ele>
        <time>2021-06-01T09:20:27Z</time>
      </trkpt>
      <trkpt lat="47.69401" lon="5.35335">
        <ele>324.56</ele>
        <time>2021-06-01T09:20:51Z</time>
      </trkpt>
      <trkpt lat="47.69432" lon="5.35345">
        <ele>323.33</ele>
        <time>2021-06-01T09:21:13Z</time>
      </trkpt>
      <trkpt lat="47.69462" lon="5.35338">
        <ele>321.79</ele>
        <time>2021-06-01T09:21:35Z</time>
      </trkpt>
      <trkpt lat="47.69479" lon="5.35329">
        <ele>320.45</ele>
        <time>2021-06-01T09:21:49Z</time>
      </trkpt>
      <trkpt lat="47.69505" lon="5.35314">
        <ele>319.01</ele>
        <time>2021-06-01T09:22:08Z</time>
      </trkpt>
      <trkpt lat="47.69528" lon="5.35296">
        <ele>317.45</ele>
        <time>2021-06-01T09:22:26Z</time>
      </trkpt>
      <trkpt lat="47.6955" lon="5.35277">
        <ele>316.38</ele>
        <time>2021-06-01T09:22:47Z</time>
      </trkpt>
      <trkpt lat="47.69572" lon="5.35258">
        <ele>315.32</ele>
        <time>2021-06-01T09:23:06Z</time>
      </trkpt>
      <trkpt lat="47.69596" lon="5.35235">
        <ele>313.94</ele>
        <time>2021-06-01T09:23:24Z</time>
      </trkpt>
      <trkpt lat="47.69627" lon="5.35201">
        <ele>312.8</ele>
        <time>2021-06-01T09:23:48Z</time>
      </trkpt>
      <trkpt lat="47.69643" lon="5.35179">
        <ele>312.26</ele>
        <time>2021-06-01T09:24:05Z</time>
      </trkpt>
      <trkpt lat="47.69645" lon="5.35177">
        <ele>312.07</ele>
        <time>2021-06-01T09:24:07Z</time>
      </trkpt>
      <trkpt lat="47.69665" lon="5.35162">
        <ele>310.04</ele>
        <time>2021-06-01T09:24:24Z</time>
      </trkpt>
      <trkpt lat="47.69696" lon="5.35165">
        <ele>309.76</ele>
        <time>2021-06-01T09:24:44Z</time>
      </trkpt>
      <trkpt lat="47.69718" lon="5.35175">
        <ele>309.86</ele>
        <time>2021-06-01T09:25:01Z</time>
      </trkpt>
      <trkpt lat="47.69739" lon="5.35177">
        <ele>310.18</ele>
        <time>2021-06-01T09:25:17Z</time>
      </trkpt>
      <trkpt lat="47.69756" lon="5.35172">
        <ele>310.52</ele>
        <time>2021-06-01T09:25:32Z</time>
      </trkpt>
      <trkpt lat="47.69776" lon="5.35162">
        <ele>310.56</ele>
        <time>2021-06-01T09:25:47Z</time>
      </trkpt>
      <trkpt lat="47.69783" lon="5.35158">
        <ele>310.7</ele>
        <time>2021-06-01T09:25:52Z</time>
      </trkpt>
      <trkpt lat="47.69797" lon="5.35151">
        <ele>310.71</ele>
        <time>2021-06-01T09:26:04Z</time>
      </trkpt>
      <trkpt lat="47.69815" lon="5.35139">
        <ele>310.9</ele>
        <time>2021-06-01T09:26:21Z</time>
      </trkpt>
      <trkpt lat="47.69823" lon="5.35133">
        <ele>310.81</ele>
        <time>2021-06-01T09:26:28Z</time>
      </trkpt>
      <trkpt lat="47.69851" lon="5.35122">
        <ele>310.4</ele>
        <time>2021-06-01T09:26:44Z</time>
      </trkpt>
      <trkpt lat="47.69877" lon="5.35114">
        <ele>309.55</ele>
        <time>2021-06-01T09:26:58Z</time>
      </trkpt>
      <trkpt lat="47.69909" lon="5.35105">
        <ele>310.14</ele>
        <time>2021-06-01T09:27:17Z</time>
      </trkpt>
      <trkpt lat="47.69936" lon="5.351">
        <ele>311.43</ele>
        <time>2021-06-01T09:27:42Z</time>
      </trkpt>
      <trkpt lat="47.69961" lon="5.35099">
        <ele>311.88</ele>
        <time>2021-06-01T09:27:58Z</time>
      </trkpt>
      <trkpt lat="47.69965" lon="5.35099">
        <ele>311.89</ele>
        <time>2021-06-01T09:28:03Z</time>
      </trkpt>
      <trkpt lat="47.69973" lon="5.35096">
        <ele>311.8</ele>
        <time>2021-06-01T09:28:17Z</time>
      </trkpt>
      <trkpt lat="47.69973" lon="5.35097">
        <ele>311.15</ele>
        <time>2021-06-01T09:28:40Z</time>
      </trkpt>
      <trkpt lat="47.69974" lon="5.35097">
        <ele>311.33</ele>
        <time>2021-06-01T09:28:58Z</time>
      </trkpt>
      <trkpt lat="47.69974" lon="5.35097">
        <ele>311.41</ele>
        <time>2021-06-01T09:29:06Z</time>
      </trkpt>
      <trkpt lat="47.69994" lon="5.35093">
        <ele>312.53</ele>
        <time>2021-06-01T09:31:56Z</time>
      </trkpt>
      <trkpt lat="47.70018" lon="5.35104">
        <ele>310.27</ele>
        <time>2021-06-01T09:32:13Z</time>
      </trkpt>
      <trkpt lat="47.70037" lon="5.35109">
        <ele>309.05</ele>
        <time>2021-06-01T09:32:29Z</time>
      </trkpt>
      <trkpt lat="47.70062" lon="5.35129">
        <ele>307.17</ele>
        <time>2021-06-01T09:32:48Z</time>
      </trkpt>
      <trkpt lat="47.70061" lon="5.35131">
        <ele>307.04</ele>
        <time>2021-06-01T09:32:57Z</time>
      </trkpt>
      <trkpt lat="47.70065" lon="5.35134">
        <ele>307.03</ele>
        <time>2021-06-01T09:33:01Z</time>
      </trkpt>
      <trkpt lat="47.70066" lon="5.35136">
        <ele>307</ele>
        <time>2021-06-01T09:33:02Z</time>
      </trkpt>
      <trkpt lat="47.70085" lon="5.35154">
        <ele>306.55</ele>
        <time>2021-06-01T09:33:20Z</time>
      </trkpt>
      <trkpt lat="47.70117" lon="5.3518">
        <ele>305.72</ele>
        <time>2021-06-01T09:33:44Z</time>
      </trkpt>
      <trkpt lat="47.70142" lon="5.35195">
        <ele>304.6</ele>
        <time>2021-06-01T09:34:03Z</time>
      </trkpt>
      <trkpt lat="47.70166" lon="5.35209">
        <ele>303.6</ele>
        <time>2021-06-01T09:34:21Z</time>
      </trkpt>
      <trkpt lat="47.70194" lon="5.35227">
        <ele>302.58</ele>
        <time>2021-06-01T09:34:42Z</time>
      </trkpt>
      <trkpt lat="47.70217" lon="5.35241">
        <ele>302.14</ele>
        <time>2021-06-01T09:35:00Z</time>
      </trkpt>
      <trkpt lat="47.70247" lon="5.3526">
        <ele>302.22</ele>
        <time>2021-06-01T09:35:23Z</time>
      </trkpt>
      <trkpt lat="47.70279" lon="5.35276">
        <ele>301.8</ele>
        <time>2021-06-01T09:35:48Z</time>
      </trkpt>
      <trkpt lat="47.70314" lon="5.35272">
        <ele>299.84</ele>
        <time>2021-06-01T09:36:13Z</time>
      </trkpt>
      <trkpt lat="47.70347" lon="5.35273">
        <ele>298.26</ele>
        <time>2021-06-01T09:36:37Z</time>
      </trkpt>
      <trkpt lat="47.70355" lon="5.35303">
        <ele>298.18</ele>
        <time>2021-06-01T09:36:55Z</time>
      </trkpt>
      <trkpt lat="47.70364" lon="5.35347">
        <ele>299.39</ele>
        <time>2021-06-01T09:37:19Z</time>
      </trkpt>
      <trkpt lat="47.70371" lon="5.35387">
        <ele>298.54</ele>
        <time>2021-06-01T09:37:39Z</time>
      </trkpt>
      <trkpt lat="47.70378" lon="5.35431">
        <ele>297.49</ele>
        <time>2021-06-01T09:38:02Z</time>
      </trkpt>
      <trkpt lat="47.70386" lon="5.35473">
        <ele>296.93</ele>
        <time>2021-06-01T09:38:24Z</time>
      </trkpt>
      <trkpt lat="47.7039" lon="5.35501">
        <ele>295.32</ele>
        <time>2021-06-01T09:38:39Z</time>
      </trkpt>
      <trkpt lat="47.70392" lon="5.35543">
        <ele>294.97</ele>
        <time>2021-06-01T09:38:58Z</time>
      </trkpt>
      <trkpt lat="47.70399" lon="5.35579">
        <ele>292.3</ele>
        <time>2021-06-01T09:39:16Z</time>
      </trkpt>
      <trkpt lat="47.70409" lon="5.35596">
        <ele>290.5</ele>
        <time>2021-06-01T09:39:30Z</time>
      </trkpt>
      <trkpt lat="47.7042" lon="5.35619">
        <ele>290.38</ele>
        <time>2021-06-01T09:39:49Z</time>
      </trkpt>
      <trkpt lat="47.70434" lon="5.35645">
        <ele>292.06</ele>
        <time>2021-06-01T09:40:06Z</time>
      </trkpt>
      <trkpt lat="47.70444" lon="5.35664">
        <ele>293.34</ele>
        <time>2021-06-01T09:40:25Z</time>
      </trkpt>
      <trkpt lat="47.70455" lon="5.35685">
        <ele>294.43</ele>
        <time>2021-06-01T09:40:47Z</time>
      </trkpt>
      <trkpt lat="47.70458" lon="5.35689">
        <ele>294.62</ele>
        <time>2021-06-01T09:40:52Z</time>
      </trkpt>
      <trkpt lat="47.70464" lon="5.35697">
        <ele>295.57</ele>
        <time>2021-06-01T09:41:02Z</time>
      </trkpt>
      <trkpt lat="47.70469" lon="5.35703">
        <ele>295.83</ele>
        <time>2021-06-01T09:41:10Z</time>
      </trkpt>
      <trkpt lat="47.70489" lon="5.35726">
        <ele>296.64</ele>
        <time>2021-06-01T09:41:29Z</time>
      </trkpt>
      <trkpt lat="47.70508" lon="5.35753">
        <ele>298.58</ele>
        <time>2021-06-01T09:41:53Z</time>
      </trkpt>
      <trkpt lat="47.70512" lon="5.35759">
        <ele>300.91</ele>
        <time>2021-06-01T09:41:59Z</time>
      </trkpt>
      <trkpt lat="47.70524" lon="5.35792">
        <ele>301.93</ele>
        <time>2021-06-01T09:42:21Z</time>
      </trkpt>
      <trkpt lat="47.70527" lon="5.35798">
        <ele>302.78</ele>
        <time>2021-06-01T09:42:45Z</time>
      </trkpt>
      <trkpt lat="47.70543" lon="5.35824">
        <ele>304.17</ele>
        <time>2021-06-01T09:43:06Z</time>
      </trkpt>
      <trkpt lat="47.70557" lon="5.35861">
        <ele>305.71</ele>
        <time>2021-06-01T09:43:31Z</time>
      </trkpt>
      <trkpt lat="47.70566" lon="5.35892">
        <ele>306.71</ele>
        <time>2021-06-01T09:43:56Z</time>
      </trkpt>
      <trkpt lat="47.70574" lon="5.35903">
        <ele>307.7</ele>
        <time>2021-06-01T09:44:18Z</time>
      </trkpt>
      <trkpt lat="47.70585" lon="5.35924">
        <ele>308.39</ele>
        <time>2021-06-01T09:44:36Z</time>
      </trkpt>
      <trkpt lat="47.70588" lon="5.35929">
        <ele>309.22</ele>
        <time>2021-06-01T09:44:43Z</time>
      </trkpt>
      <trkpt lat="47.70588" lon="5.35934">
        <ele>309.81</ele>
        <time>2021-06-01T09:45:01Z</time>
      </trkpt>
      <trkpt lat="47.70593" lon="5.35935">
        <ele>309.73</ele>
        <time>2021-06-01T09:45:20Z</time>
      </trkpt>
      <trkpt lat="47.70594" lon="5.35934">
        <ele>309.74</ele>
        <time>2021-06-01T09:45:22Z</time>
      </trkpt>
      <trkpt lat="47.70605" lon="5.35927">
        <ele>310.12</ele>
        <time>2021-06-01T09:45:38Z</time>
      </trkpt>
      <trkpt lat="47.70626" lon="5.35922">
        <ele>311.83</ele>
        <time>2021-06-01T09:45:58Z</time>
      </trkpt>
      <trkpt lat="47.70629" lon="5.35921">
        <ele>312.13</ele>
        <time>2021-06-01T09:46:01Z</time>
      </trkpt>
      <trkpt lat="47.7063" lon="5.35921">
        <ele>312.22</ele>
        <time>2021-06-01T09:46:02Z</time>
      </trkpt>
      <trkpt lat="47.7065" lon="5.35918">
        <ele>313.12</ele>
        <time>2021-06-01T09:46:17Z</time>
      </trkpt>
      <trkpt lat="47.70664" lon="5.35915">
        <ele>313.89</ele>
        <time>2021-06-01T09:46:32Z</time>
      </trkpt>
      <trkpt lat="47.70665" lon="5.35915">
        <ele>313.95</ele>
        <time>2021-06-01T09:46:33Z</time>
      </trkpt>
      <trkpt lat="47.70666" lon="5.35914">
        <ele>314.02</ele>
        <time>2021-06-01T09:46:34Z</time>
      </trkpt>
      <trkpt lat="47.70668" lon="5.35914">
        <ele>314.1</ele>
        <time>2021-06-01T09:46:35Z</time>
      </trkpt>
      <trkpt lat="47.70669" lon="5.35913">
        <ele>314.18</ele>
        <time>2021-06-01T09:46:36Z</time>
      </trkpt>
      <trkpt lat="47.70697" lon="5.35903">
        <ele>315.06</ele>
        <time>2021-06-01T09:46:57Z</time>
      </trkpt>
      <trkpt lat="47.70717" lon="5.35893">
        <ele>315.55</ele>
        <time>2021-06-01T09:47:14Z</time>
      </trkpt>
      <trkpt lat="47.70733" lon="5.35889">
        <ele>315.36</ele>
        <time>2021-06-01T09:47:26Z</time>
      </trkpt>
      <trkpt lat="47.70757" lon="5.35877">
        <ele>315.16</ele>
        <time>2021-06-01T09:47:44Z</time>
      </trkpt>
      <trkpt lat="47.70784" lon="5.35864">
        <ele>314.38</ele>
        <time>2021-06-01T09:48:03Z</time>
      </trkpt>
      <trkpt lat="47.70808" lon="5.35852">
        <ele>314.06</ele>
        <time>2021-06-01T09:48:21Z</time>
      </trkpt>
      <trkpt lat="47.70825" lon="5.35845">
        <ele>314.05</ele>
        <time>2021-06-01T09:48:33Z</time>
      </trkpt>
      <trkpt lat="47.70827" lon="5.35845">
        <ele>314.05</ele>
        <time>2021-06-01T09:48:34Z</time>
      </trkpt>
      <trkpt lat="47.70854" lon="5.35862">
        <ele>314.37</ele>
        <time>2021-06-01T09:48:53Z</time>
      </trkpt>
      <trkpt lat="47.70872" lon="5.35888">
        <ele>316.42</ele>
        <time>2021-06-01T09:49:11Z</time>
      </trkpt>
      <trkpt lat="47.70893" lon="5.35892">
        <ele>317.51</ele>
        <time>2021-06-01T09:49:29Z</time>
      </trkpt>
      <trkpt lat="47.70913" lon="5.35879">
        <ele>318.96</ele>
        <time>2021-06-01T09:49:48Z</time>
      </trkpt>
      <trkpt lat="47.70929" lon="5.35875">
        <ele>320.22</ele>
        <time>2021-06-01T09:50:01Z</time>
      </trkpt>
      <trkpt lat="47.7093" lon="5.35876">
        <ele>320.23</ele>
        <time>2021-06-01T09:50:02Z</time>
      </trkpt>
      <trkpt lat="47.70952" lon="5.35876">
        <ele>321.66</ele>
        <time>2021-06-01T09:50:20Z</time>
      </trkpt>
      <trkpt lat="47.70972" lon="5.35879">
        <ele>323.22</ele>
        <time>2021-06-01T09:50:38Z</time>
      </trkpt>
      <trkpt lat="47.70993" lon="5.35882">
        <ele>324.82</ele>
        <time>2021-06-01T09:50:55Z</time>
      </trkpt>
      <trkpt lat="47.7102" lon="5.35883">
        <ele>327.31</ele>
        <time>2021-06-01T09:51:16Z</time>
      </trkpt>
      <trkpt lat="47.71045" lon="5.35884">
        <ele>329.43</ele>
        <time>2021-06-01T09:51:36Z</time>
      </trkpt>
      <trkpt lat="47.71073" lon="5.3589">
        <ele>331.62</ele>
        <time>2021-06-01T09:51:58Z</time>
      </trkpt>
      <trkpt lat="47.71102" lon="5.35893">
        <ele>333.68</ele>
        <time>2021-06-01T09:52:21Z</time>
      </trkpt>
      <trkpt lat="47.71124" lon="5.35893">
        <ele>335.09</ele>
        <time>2021-06-01T09:52:39Z</time>
      </trkpt>
      <trkpt lat="47.7114" lon="5.35892">
        <ele>336.25</ele>
        <time>2021-06-01T09:52:53Z</time>
      </trkpt>
      <trkpt lat="47.7114" lon="5.35894">
        <ele>336.25</ele>
        <time>2021-06-01T09:52:54Z</time>
      </trkpt>
      <trkpt lat="47.71141" lon="5.35896">
        <ele>336.25</ele>
        <time>2021-06-01T09:52:55Z</time>
      </trkpt>
      <trkpt lat="47.71141" lon="5.35943">
        <ele>337.84</ele>
        <time>2021-06-01T09:53:18Z</time>
      </trkpt>
      <trkpt lat="47.71138" lon="5.35983">
        <ele>338.44</ele>
        <time>2021-06-01T09:53:38Z</time>
      </trkpt>
      <trkpt lat="47.71134" lon="5.36023">
        <ele>339.22</ele>
        <time>2021-06-01T09:53:57Z</time>
      </trkpt>
      <trkpt lat="47.71132" lon="5.36042">
        <ele>339.32</ele>
        <time>2021-06-01T09:54:06Z</time>
      </trkpt>
      <trkpt lat="47.7113" lon="5.36105">
        <ele>339.83</ele>
        <time>2021-06-01T09:54:36Z</time>
      </trkpt>
      <trkpt lat="47.71125" lon="5.36162">
        <ele>340.11</ele>
        <time>2021-06-01T09:55:03Z</time>
      </trkpt>
      <trkpt lat="47.7112" lon="5.36201">
        <ele>340.86</ele>
        <time>2021-06-01T09:55:22Z</time>
      </trkpt>
      <trkpt lat="47.71112" lon="5.36252">
        <ele>341.59</ele>
        <time>2021-06-01T09:55:47Z</time>
      </trkpt>
      <trkpt lat="47.71105" lon="5.36309">
        <ele>342.21</ele>
        <time>2021-06-01T09:56:15Z</time>
      </trkpt>
      <trkpt lat="47.71109" lon="5.36322">
        <ele>342.25</ele>
        <time>2021-06-01T09:56:23Z</time>
      </trkpt>
      <trkpt lat="47.7111" lon="5.36322">
        <ele>342.27</ele>
        <time>2021-06-01T09:56:24Z</time>
      </trkpt>
      <trkpt lat="47.71111" lon="5.36322">
        <ele>342.27</ele>
        <time>2021-06-01T09:56:25Z</time>
      </trkpt>
      <trkpt lat="47.71112" lon="5.36322">
        <ele>342.31</ele>
        <time>2021-06-01T09:56:26Z</time>
      </trkpt>
      <trkpt lat="47.71113" lon="5.36321">
        <ele>342.38</ele>
        <time>2021-06-01T09:56:27Z</time>
      </trkpt>
      <trkpt lat="47.71127" lon="5.36301">
        <ele>343.65</ele>
        <time>2021-06-01T09:56:43Z</time>
      </trkpt>
      <trkpt lat="47.71133" lon="5.36298">
        <ele>343.99</ele>
        <time>2021-06-01T09:56:48Z</time>
      </trkpt>
      <trkpt lat="47.71135" lon="5.36299">
        <ele>344.08</ele>
        <time>2021-06-01T09:56:49Z</time>
      </trkpt>
      <trkpt lat="47.71136" lon="5.363">
        <ele>344.3</ele>
        <time>2021-06-01T09:56:50Z</time>
      </trkpt>
      <trkpt lat="47.71138" lon="5.36301">
        <ele>344.45</ele>
        <time>2021-06-01T09:56:51Z</time>
      </trkpt>
      <trkpt lat="47.71139" lon="5.36302">
        <ele>344.57</ele>
        <time>2021-06-01T09:56:52Z</time>
      </trkpt>
      <trkpt lat="47.7114" lon="5.36303">
        <ele>344.68</ele>
        <time>2021-06-01T09:56:53Z</time>
      </trkpt>
      <trkpt lat="47.71141" lon="5.36305">
        <ele>344.78</ele>
        <time>2021-06-01T09:56:54Z</time>
      </trkpt>
      <trkpt lat="47.7115" lon="5.36344">
        <ele>344.99</ele>
        <time>2021-06-01T09:57:14Z</time>
      </trkpt>
      <trkpt lat="47.71161" lon="5.36391">
        <ele>343.59</ele>
        <time>2021-06-01T09:57:39Z</time>
      </trkpt>
      <trkpt lat="47.7117" lon="5.36434">
        <ele>342.86</ele>
        <time>2021-06-01T09:58:01Z</time>
      </trkpt>
      <trkpt lat="47.71173" lon="5.36481">
        <ele>341.46</ele>
        <time>2021-06-01T09:58:25Z</time>
      </trkpt>
      <trkpt lat="47.71181" lon="5.36528">
        <ele>340.13</ele>
        <time>2021-06-01T09:58:49Z</time>
      </trkpt>
      <trkpt lat="47.71193" lon="5.36567">
        <ele>339.71</ele>
        <time>2021-06-01T09:59:11Z</time>
      </trkpt>
      <trkpt lat="47.7121" lon="5.36611">
        <ele>339.3</ele>
        <time>2021-06-01T09:59:37Z</time>
      </trkpt>
      <trkpt lat="47.71226" lon="5.36648">
        <ele>339.1</ele>
        <time>2021-06-01T09:59:59Z</time>
      </trkpt>
      <trkpt lat="47.71246" lon="5.36692">
        <ele>339.14</ele>
        <time>2021-06-01T10:00:26Z</time>
      </trkpt>
      <trkpt lat="47.71266" lon="5.36729">
        <ele>340.04</ele>
        <time>2021-06-01T10:00:51Z</time>
      </trkpt>
      <trkpt lat="47.71287" lon="5.36759">
        <ele>340.69</ele>
        <time>2021-06-01T10:01:13Z</time>
      </trkpt>
      <trkpt lat="47.71311" lon="5.36785">
        <ele>341.79</ele>
        <time>2021-06-01T10:01:36Z</time>
      </trkpt>
      <trkpt lat="47.7133" lon="5.36803">
        <ele>341</ele>
        <time>2021-06-01T10:01:54Z</time>
      </trkpt>
      <trkpt lat="47.71349" lon="5.36827">
        <ele>340.72</ele>
        <time>2021-06-01T10:02:14Z</time>
      </trkpt>
      <trkpt lat="47.71373" lon="5.36865">
        <ele>341.25</ele>
        <time>2021-06-01T10:02:40Z</time>
      </trkpt>
      <trkpt lat="47.71395" lon="5.36895">
        <ele>342.12</ele>
        <time>2021-06-01T10:03:03Z</time>
      </trkpt>
      <trkpt lat="47.71413" lon="5.36903">
        <ele>343.29</ele>
        <time>2021-06-01T10:03:19Z</time>
      </trkpt>
      <trkpt lat="47.71431" lon="5.36895">
        <ele>344.42</ele>
        <time>2021-06-01T10:03:36Z</time>
      </trkpt>
      <trkpt lat="47.71445" lon="5.36889">
        <ele>345.6</ele>
        <time>2021-06-01T10:03:49Z</time>
      </trkpt>
      <trkpt lat="47.71446" lon="5.36889">
        <ele>345.68</ele>
        <time>2021-06-01T10:03:50Z</time>
      </trkpt>
      <trkpt lat="47.71468" lon="5.36891">
        <ele>346.53</ele>
        <time>2021-06-01T10:04:06Z</time>
      </trkpt>
      <trkpt lat="47.71486" lon="5.369">
        <ele>348.23</ele>
        <time>2021-06-01T10:04:22Z</time>
      </trkpt>
      <trkpt lat="47.71498" lon="5.36909">
        <ele>349.01</ele>
        <time>2021-06-01T10:04:31Z</time>
      </trkpt>
      <trkpt lat="47.71499" lon="5.3691">
        <ele>349.04</ele>
        <time>2021-06-01T10:04:32Z</time>
      </trkpt>
      <trkpt lat="47.715" lon="5.36911">
        <ele>349.09</ele>
        <time>2021-06-01T10:04:33Z</time>
      </trkpt>
      <trkpt lat="47.71518" lon="5.3693">
        <ele>350.24</ele>
        <time>2021-06-01T10:04:49Z</time>
      </trkpt>
      <trkpt lat="47.71529" lon="5.36947">
        <ele>351.02</ele>
        <time>2021-06-01T10:05:02Z</time>
      </trkpt>
      <trkpt lat="47.71537" lon="5.36968">
        <ele>351.8</ele>
        <time>2021-06-01T10:05:15Z</time>
      </trkpt>
      <trkpt lat="47.71539" lon="5.36973">
        <ele>352.13</ele>
        <time>2021-06-01T10:05:18Z</time>
      </trkpt>
      <trkpt lat="47.71547" lon="5.36999">
        <ele>353.06</ele>
        <time>2021-06-01T10:05:34Z</time>
      </trkpt>
      <trkpt lat="47.71554" lon="5.37026">
        <ele>354.4</ele>
        <time>2021-06-01T10:05:51Z</time>
      </trkpt>
      <trkpt lat="47.71559" lon="5.37064">
        <ele>355.77</ele>
        <time>2021-06-01T10:06:12Z</time>
      </trkpt>
      <trkpt lat="47.71564" lon="5.37106">
        <ele>357.38</ele>
        <time>2021-06-01T10:06:33Z</time>
      </trkpt>
      <trkpt lat="47.71567" lon="5.37152">
        <ele>358.08</ele>
        <time>2021-06-01T10:06:57Z</time>
      </trkpt>
      <trkpt lat="47.71576" lon="5.37191">
        <ele>357.26</ele>
        <time>2021-06-01T10:07:19Z</time>
      </trkpt>
      <trkpt lat="47.71592" lon="5.37227">
        <ele>357.4</ele>
        <time>2021-06-01T10:07:42Z</time>
      </trkpt>
      <trkpt lat="47.716" lon="5.37247">
        <ele>357.88</ele>
        <time>2021-06-01T10:07:56Z</time>
      </trkpt>
      <trkpt lat="47.71602" lon="5.37249">
        <ele>357.96</ele>
        <time>2021-06-01T10:07:58Z</time>
      </trkpt>
      <trkpt lat="47.71603" lon="5.37251">
        <ele>357.98</ele>
        <time>2021-06-01T10:07:59Z</time>
      </trkpt>
      <trkpt lat="47.71604" lon="5.37252">
        <ele>358</ele>
        <time>2021-06-01T10:08:00Z</time>
      </trkpt>
      <trkpt lat="47.71605" lon="5.37252">
        <ele>358.03</ele>
        <time>2021-06-01T10:08:01Z</time>
      </trkpt>
      <trkpt lat="47.71626" lon="5.37259">
        <ele>358.56</ele>
        <time>2021-06-01T10:08:20Z</time>
      </trkpt>
      <trkpt lat="47.71648" lon="5.37257">
        <ele>358.41</ele>
        <time>2021-06-01T10:08:40Z</time>
      </trkpt>
      <trkpt lat="47.71654" lon="5.37254">
        <ele>358.43</ele>
        <time>2021-06-01T10:08:55Z</time>
      </trkpt>
      <trkpt lat="47.71654" lon="5.37255">
        <ele>354.82</ele>
        <time>2021-06-01T10:09:03Z</time>
      </trkpt>
      <trkpt lat="47.71654" lon="5.37255">
        <ele>354.01</ele>
        <time>2021-06-01T10:09:05Z</time>
      </trkpt>
      <trkpt lat="47.71654" lon="5.37255">
        <ele>357.74</ele>
        <time>2021-06-01T10:09:10Z</time>
      </trkpt>
      <trkpt lat="47.71654" lon="5.37255">
        <ele>359.25</ele>
        <time>2021-06-01T10:09:13Z</time>
      </trkpt>
      <trkpt lat="47.71654" lon="5.37255">
        <ele>359.62</ele>
        <time>2021-06-01T10:09:18Z</time>
      </trkpt>
      <trkpt lat="47.71666" lon="5.37259">
        <ele>356.49</ele>
        <time>2021-06-01T10:17:59Z</time>
      </trkpt>
    </trkseg>
  </trk>
</gpx>